<?xml version="1.0" encoding="UTF-8" standalone="no" ?>
<gpx xmlns="http://www.topografix.com/GPX/1/1" xmlns:xsi="http://www.w3.org/2001/XMLSchema-instance" xsi:schemaLocation="http://www.topografix.com/GPX/1/1 http://www.topografix.com/GPX/1/1/gpx.xsd" version="1.1" creator="VisuGPX - https://www.visugpx.com">
  <metadata>
    <name>J1St Andéol-de-Vals - Mézilhac 25km 1050D+</name>
  </metadata>
  <trk>
    <name><![CDATA[Antraigues-Mézilhac  32 kms D+1348-18901054]]></name>
    <extensions>
      <line xmlns="http://www.topografix.com/GPX/gpx_style/0/2">
        <color>0000FF</color>
        <width>4</width>
          <extensions>
            <sens>1</sens>
          </extensions>
      </line>
    </extensions>
    <trkseg>
      <trkpt lat="44.69272" lon="4.40157">
        <ele>484</ele>
        <time>2024-05-04T11:07:22Z</time>
      </trkpt>
      <trkpt lat="44.69281" lon="4.40181">
        <ele>487</ele>
        <time>2024-05-04T11:07:27Z</time>
      </trkpt>
      <trkpt lat="44.69313" lon="4.40197">
        <ele>492</ele>
        <time>2024-05-04T11:07:35Z</time>
      </trkpt>
      <trkpt lat="44.69307" lon="4.40266">
        <ele>494</ele>
        <time>2024-05-04T11:07:46Z</time>
      </trkpt>
      <trkpt lat="44.69301" lon="4.40299">
        <ele>492</ele>
        <time>2024-05-04T11:07:52Z</time>
      </trkpt>
      <trkpt lat="44.693" lon="4.40333">
        <ele>491</ele>
        <time>2024-05-04T11:07:58Z</time>
      </trkpt>
      <trkpt lat="44.69303" lon="4.40344">
        <ele>491</ele>
        <time>2024-05-04T11:08:00Z</time>
      </trkpt>
      <trkpt lat="44.69308" lon="4.40353">
        <ele>493</ele>
        <time>2024-05-04T11:08:02Z</time>
      </trkpt>
      <trkpt lat="44.69315" lon="4.40357">
        <ele>496</ele>
        <time>2024-05-04T11:08:03Z</time>
      </trkpt>
      <trkpt lat="44.69321" lon="4.40374">
        <ele>498</ele>
        <time>2024-05-04T11:08:06Z</time>
      </trkpt>
      <trkpt lat="44.69324" lon="4.40378">
        <ele>499</ele>
        <time>2024-05-04T11:08:07Z</time>
      </trkpt>
      <trkpt lat="44.6933" lon="4.40377">
        <ele>502</ele>
        <time>2024-05-04T11:08:09Z</time>
      </trkpt>
      <trkpt lat="44.69334" lon="4.40369">
        <ele>504</ele>
        <time>2024-05-04T11:08:10Z</time>
      </trkpt>
      <trkpt lat="44.69338" lon="4.40366">
        <ele>506</ele>
        <time>2024-05-04T11:08:12Z</time>
      </trkpt>
      <trkpt lat="44.69345" lon="4.40368">
        <ele>509</ele>
        <time>2024-05-04T11:08:13Z</time>
      </trkpt>
      <trkpt lat="44.69351" lon="4.40388">
        <ele>512</ele>
        <time>2024-05-04T11:08:17Z</time>
      </trkpt>
      <trkpt lat="44.69356" lon="4.40395">
        <ele>514</ele>
        <time>2024-05-04T11:08:18Z</time>
      </trkpt>
      <trkpt lat="44.6937" lon="4.40404">
        <ele>521</ele>
        <time>2024-05-04T11:08:22Z</time>
      </trkpt>
      <trkpt lat="44.69376" lon="4.40449">
        <ele>521</ele>
        <time>2024-05-04T11:08:30Z</time>
      </trkpt>
      <trkpt lat="44.69389" lon="4.40492">
        <ele>525</ele>
        <time>2024-05-04T11:08:37Z</time>
      </trkpt>
      <trkpt lat="44.69407" lon="4.40517">
        <ele>534</ele>
        <time>2024-05-04T11:08:43Z</time>
      </trkpt>
      <trkpt lat="44.69415" lon="4.40532">
        <ele>539</ele>
        <time>2024-05-04T11:08:46Z</time>
      </trkpt>
      <trkpt lat="44.69434" lon="4.40599">
        <ele>545</ele>
        <time>2024-05-04T11:08:58Z</time>
      </trkpt>
      <trkpt lat="44.69444" lon="4.40614">
        <ele>546</ele>
        <time>2024-05-04T11:09:02Z</time>
      </trkpt>
      <trkpt lat="44.69448" lon="4.40635">
        <ele>545</ele>
        <time>2024-05-04T11:09:05Z</time>
      </trkpt>
      <trkpt lat="44.6947" lon="4.4061">
        <ele>551</ele>
        <time>2024-05-04T11:09:12Z</time>
      </trkpt>
      <trkpt lat="44.69475" lon="4.40594">
        <ele>554</ele>
        <time>2024-05-04T11:09:15Z</time>
      </trkpt>
      <trkpt lat="44.69505" lon="4.40568">
        <ele>563</ele>
        <time>2024-05-04T11:09:23Z</time>
      </trkpt>
      <trkpt lat="44.69536" lon="4.40564">
        <ele>563</ele>
        <time>2024-05-04T11:09:30Z</time>
      </trkpt>
      <trkpt lat="44.69569" lon="4.40545">
        <ele>566</ele>
        <time>2024-05-04T11:09:39Z</time>
      </trkpt>
      <trkpt lat="44.69592" lon="4.40541">
        <ele>567</ele>
        <time>2024-05-04T11:09:44Z</time>
      </trkpt>
      <trkpt lat="44.69618" lon="4.40548">
        <ele>564</ele>
        <time>2024-05-04T11:09:50Z</time>
      </trkpt>
      <trkpt lat="44.69674" lon="4.40522">
        <ele>566</ele>
        <time>2024-05-04T11:10:04Z</time>
      </trkpt>
      <trkpt lat="44.69692" lon="4.40509">
        <ele>569</ele>
        <time>2024-05-04T11:10:09Z</time>
      </trkpt>
      <trkpt lat="44.69708" lon="4.40482">
        <ele>574</ele>
        <time>2024-05-04T11:10:15Z</time>
      </trkpt>
      <trkpt lat="44.69709" lon="4.40475">
        <ele>575</ele>
        <time>2024-05-04T11:10:16Z</time>
      </trkpt>
      <trkpt lat="44.69714" lon="4.4047">
        <ele>576</ele>
        <time>2024-05-04T11:10:17Z</time>
      </trkpt>
      <trkpt lat="44.69722" lon="4.40468">
        <ele>577</ele>
        <time>2024-05-04T11:10:19Z</time>
      </trkpt>
      <trkpt lat="44.69726" lon="4.4046">
        <ele>578</ele>
        <time>2024-05-04T11:10:21Z</time>
      </trkpt>
      <trkpt lat="44.69736" lon="4.40469">
        <ele>577</ele>
        <time>2024-05-04T11:10:24Z</time>
      </trkpt>
      <trkpt lat="44.69751" lon="4.40476">
        <ele>577</ele>
        <time>2024-05-04T11:10:27Z</time>
      </trkpt>
      <trkpt lat="44.69748" lon="4.40452">
        <ele>580</ele>
        <time>2024-05-04T11:10:31Z</time>
      </trkpt>
      <trkpt lat="44.69756" lon="4.4043">
        <ele>583</ele>
        <time>2024-05-04T11:10:35Z</time>
      </trkpt>
      <trkpt lat="44.69756" lon="4.40419">
        <ele>585</ele>
        <time>2024-05-04T11:10:37Z</time>
      </trkpt>
      <trkpt lat="44.69752" lon="4.40404">
        <ele>585</ele>
        <time>2024-05-04T11:10:40Z</time>
      </trkpt>
      <trkpt lat="44.69738" lon="4.40373">
        <ele>585</ele>
        <time>2024-05-04T11:10:46Z</time>
      </trkpt>
      <trkpt lat="44.69737" lon="4.4036">
        <ele>586</ele>
        <time>2024-05-04T11:10:48Z</time>
      </trkpt>
      <trkpt lat="44.69741" lon="4.40349">
        <ele>586</ele>
        <time>2024-05-04T11:10:50Z</time>
      </trkpt>
      <trkpt lat="44.69751" lon="4.40344">
        <ele>587</ele>
        <time>2024-05-04T11:10:53Z</time>
      </trkpt>
      <trkpt lat="44.69781" lon="4.40335">
        <ele>590</ele>
        <time>2024-05-04T11:11:00Z</time>
      </trkpt>
      <trkpt lat="44.69819" lon="4.40314">
        <ele>592</ele>
        <time>2024-05-04T11:11:09Z</time>
      </trkpt>
      <trkpt lat="44.69861" lon="4.40298">
        <ele>594</ele>
        <time>2024-05-04T11:11:20Z</time>
      </trkpt>
      <trkpt lat="44.69942" lon="4.40258">
        <ele>597</ele>
        <time>2024-05-04T11:11:40Z</time>
      </trkpt>
      <trkpt lat="44.69967" lon="4.40243">
        <ele>597</ele>
        <time>2024-05-04T11:11:46Z</time>
      </trkpt>
      <trkpt lat="44.69975" lon="4.40227">
        <ele>596</ele>
        <time>2024-05-04T11:11:49Z</time>
      </trkpt>
      <trkpt lat="44.70025" lon="4.40218">
        <ele>598</ele>
        <time>2024-05-04T11:12:01Z</time>
      </trkpt>
      <trkpt lat="44.70047" lon="4.40224">
        <ele>601</ele>
        <time>2024-05-04T11:12:06Z</time>
      </trkpt>
      <trkpt lat="44.70059" lon="4.4023">
        <ele>602</ele>
        <time>2024-05-04T11:12:09Z</time>
      </trkpt>
      <trkpt lat="44.70068" lon="4.40231">
        <ele>603</ele>
        <time>2024-05-04T11:12:11Z</time>
      </trkpt>
      <trkpt lat="44.70098" lon="4.40255">
        <ele>606</ele>
        <time>2024-05-04T11:12:19Z</time>
      </trkpt>
      <trkpt lat="44.70106" lon="4.40255">
        <ele>608</ele>
        <time>2024-05-04T11:12:21Z</time>
      </trkpt>
      <trkpt lat="44.70111" lon="4.40265">
        <ele>608</ele>
        <time>2024-05-04T11:12:23Z</time>
      </trkpt>
      <trkpt lat="44.70117" lon="4.40268">
        <ele>609</ele>
        <time>2024-05-04T11:12:25Z</time>
      </trkpt>
      <trkpt lat="44.70139" lon="4.40352">
        <ele>608</ele>
        <time>2024-05-04T11:12:40Z</time>
      </trkpt>
      <trkpt lat="44.70149" lon="4.40367">
        <ele>610</ele>
        <time>2024-05-04T11:12:43Z</time>
      </trkpt>
      <trkpt lat="44.70155" lon="4.40385">
        <ele>610</ele>
        <time>2024-05-04T11:12:46Z</time>
      </trkpt>
      <trkpt lat="44.70168" lon="4.40412">
        <ele>613</ele>
        <time>2024-05-04T11:12:52Z</time>
      </trkpt>
      <trkpt lat="44.70186" lon="4.40437">
        <ele>617</ele>
        <time>2024-05-04T11:12:58Z</time>
      </trkpt>
      <trkpt lat="44.70196" lon="4.40483">
        <ele>617</ele>
        <time>2024-05-04T11:13:06Z</time>
      </trkpt>
      <trkpt lat="44.70206" lon="4.40556">
        <ele>614</ele>
        <time>2024-05-04T11:13:18Z</time>
      </trkpt>
      <trkpt lat="44.70217" lon="4.40576">
        <ele>618</ele>
        <time>2024-05-04T11:13:22Z</time>
      </trkpt>
      <trkpt lat="44.7022" lon="4.40591">
        <ele>617</ele>
        <time>2024-05-04T11:13:25Z</time>
      </trkpt>
      <trkpt lat="44.70223" lon="4.40592">
        <ele>618</ele>
        <time>2024-05-04T11:13:25Z</time>
      </trkpt>
      <trkpt lat="44.70225" lon="4.40601">
        <ele>617</ele>
        <time>2024-05-04T11:13:27Z</time>
      </trkpt>
      <trkpt lat="44.70271" lon="4.4065">
        <ele>619</ele>
        <time>2024-05-04T11:13:41Z</time>
      </trkpt>
      <trkpt lat="44.70302" lon="4.40661">
        <ele>619</ele>
        <time>2024-05-04T11:13:48Z</time>
      </trkpt>
      <trkpt lat="44.70338" lon="4.40677">
        <ele>616</ele>
        <time>2024-05-04T11:13:57Z</time>
      </trkpt>
      <trkpt lat="44.7036" lon="4.40666">
        <ele>616</ele>
        <time>2024-05-04T11:14:02Z</time>
      </trkpt>
      <trkpt lat="44.70395" lon="4.40643">
        <ele>617</ele>
        <time>2024-05-04T11:14:11Z</time>
      </trkpt>
      <trkpt lat="44.7041" lon="4.4062">
        <ele>622</ele>
        <time>2024-05-04T11:14:16Z</time>
      </trkpt>
      <trkpt lat="44.70417" lon="4.40614">
        <ele>623</ele>
        <time>2024-05-04T11:14:18Z</time>
      </trkpt>
      <trkpt lat="44.70435" lon="4.40604">
        <ele>626</ele>
        <time>2024-05-04T11:14:23Z</time>
      </trkpt>
      <trkpt lat="44.70451" lon="4.40609">
        <ele>625</ele>
        <time>2024-05-04T11:14:27Z</time>
      </trkpt>
      <trkpt lat="44.70506" lon="4.40633">
        <ele>619</ele>
        <time>2024-05-04T11:14:40Z</time>
      </trkpt>
      <trkpt lat="44.70568" lon="4.40625">
        <ele>615</ele>
        <time>2024-05-04T11:14:55Z</time>
      </trkpt>
      <trkpt lat="44.70574" lon="4.4062">
        <ele>615</ele>
        <time>2024-05-04T11:14:56Z</time>
      </trkpt>
      <trkpt lat="44.70589" lon="4.40614">
        <ele>615</ele>
        <time>2024-05-04T11:15:00Z</time>
      </trkpt>
      <trkpt lat="44.70609" lon="4.40615">
        <ele>612</ele>
        <time>2024-05-04T11:15:05Z</time>
      </trkpt>
      <trkpt lat="44.70631" lon="4.40592">
        <ele>612</ele>
        <time>2024-05-04T11:15:11Z</time>
      </trkpt>
      <trkpt lat="44.70638" lon="4.4059">
        <ele>611</ele>
        <time>2024-05-04T11:15:13Z</time>
      </trkpt>
      <trkpt lat="44.70645" lon="4.40577">
        <ele>612</ele>
        <time>2024-05-04T11:15:15Z</time>
      </trkpt>
      <trkpt lat="44.70649" lon="4.40556">
        <ele>613</ele>
        <time>2024-05-04T11:15:19Z</time>
      </trkpt>
      <trkpt lat="44.70655" lon="4.40539">
        <ele>614</ele>
        <time>2024-05-04T11:15:22Z</time>
      </trkpt>
      <trkpt lat="44.70661" lon="4.4053">
        <ele>614</ele>
        <time>2024-05-04T11:15:24Z</time>
      </trkpt>
      <trkpt lat="44.70668" lon="4.40526">
        <ele>612</ele>
        <time>2024-05-04T11:15:26Z</time>
      </trkpt>
      <trkpt lat="44.70676" lon="4.4051">
        <ele>612</ele>
        <time>2024-05-04T11:15:29Z</time>
      </trkpt>
      <trkpt lat="44.70689" lon="4.40525">
        <ele>608</ele>
        <time>2024-05-04T11:15:33Z</time>
      </trkpt>
      <trkpt lat="44.70723" lon="4.40537">
        <ele>602</ele>
        <time>2024-05-04T11:15:41Z</time>
      </trkpt>
      <trkpt lat="44.70756" lon="4.40568">
        <ele>602</ele>
        <time>2024-05-04T11:15:51Z</time>
      </trkpt>
      <trkpt lat="44.70763" lon="4.40587">
        <ele>604</ele>
        <time>2024-05-04T11:15:54Z</time>
      </trkpt>
      <trkpt lat="44.70764" lon="4.40601">
        <ele>603</ele>
        <time>2024-05-04T11:15:56Z</time>
      </trkpt>
      <trkpt lat="44.70772" lon="4.40611">
        <ele>603</ele>
        <time>2024-05-04T11:15:59Z</time>
      </trkpt>
      <trkpt lat="44.708" lon="4.40634">
        <ele>606</ele>
        <time>2024-05-04T11:16:07Z</time>
      </trkpt>
      <trkpt lat="44.70809" lon="4.40649">
        <ele>607</ele>
        <time>2024-05-04T11:16:10Z</time>
      </trkpt>
      <trkpt lat="44.70819" lon="4.40672">
        <ele>608</ele>
        <time>2024-05-04T11:16:14Z</time>
      </trkpt>
      <trkpt lat="44.70866" lon="4.40705">
        <ele>616</ele>
        <time>2024-05-04T11:16:27Z</time>
      </trkpt>
      <trkpt lat="44.70884" lon="4.40753">
        <ele>619</ele>
        <time>2024-05-04T11:16:36Z</time>
      </trkpt>
      <trkpt lat="44.70893" lon="4.40794">
        <ele>622</ele>
        <time>2024-05-04T11:16:43Z</time>
      </trkpt>
      <trkpt lat="44.70897" lon="4.40806">
        <ele>624</ele>
        <time>2024-05-04T11:16:45Z</time>
      </trkpt>
      <trkpt lat="44.70901" lon="4.40835">
        <ele>625</ele>
        <time>2024-05-04T11:16:50Z</time>
      </trkpt>
      <trkpt lat="44.70891" lon="4.40876">
        <ele>622</ele>
        <time>2024-05-04T11:16:57Z</time>
      </trkpt>
      <trkpt lat="44.70868" lon="4.4091">
        <ele>614</ele>
        <time>2024-05-04T11:17:05Z</time>
      </trkpt>
      <trkpt lat="44.70858" lon="4.40938">
        <ele>612</ele>
        <time>2024-05-04T11:17:10Z</time>
      </trkpt>
      <trkpt lat="44.70855" lon="4.40957">
        <ele>612</ele>
        <time>2024-05-04T11:17:13Z</time>
      </trkpt>
      <trkpt lat="44.70863" lon="4.40994">
        <ele>618</ele>
        <time>2024-05-04T11:17:20Z</time>
      </trkpt>
      <trkpt lat="44.7086" lon="4.41034">
        <ele>619</ele>
        <time>2024-05-04T11:17:26Z</time>
      </trkpt>
      <trkpt lat="44.70855" lon="4.41074">
        <ele>621</ele>
        <time>2024-05-04T11:17:33Z</time>
      </trkpt>
      <trkpt lat="44.70845" lon="4.41125">
        <ele>621</ele>
        <time>2024-05-04T11:17:42Z</time>
      </trkpt>
      <trkpt lat="44.70832" lon="4.41171">
        <ele>620</ele>
        <time>2024-05-04T11:17:50Z</time>
      </trkpt>
      <trkpt lat="44.70834" lon="4.41187">
        <ele>620</ele>
        <time>2024-05-04T11:17:53Z</time>
      </trkpt>
      <trkpt lat="44.70837" lon="4.41195">
        <ele>620</ele>
        <time>2024-05-04T11:17:54Z</time>
      </trkpt>
      <trkpt lat="44.70849" lon="4.41197">
        <ele>621</ele>
        <time>2024-05-04T11:17:57Z</time>
      </trkpt>
      <trkpt lat="44.70855" lon="4.41194">
        <ele>621</ele>
        <time>2024-05-04T11:17:59Z</time>
      </trkpt>
      <trkpt lat="44.70875" lon="4.41172">
        <ele>624</ele>
        <time>2024-05-04T11:18:04Z</time>
      </trkpt>
      <trkpt lat="44.70907" lon="4.41156">
        <ele>628</ele>
        <time>2024-05-04T11:18:12Z</time>
      </trkpt>
      <trkpt lat="44.70916" lon="4.41159">
        <ele>628</ele>
        <time>2024-05-04T11:18:15Z</time>
      </trkpt>
      <trkpt lat="44.7094" lon="4.41188">
        <ele>629</ele>
        <time>2024-05-04T11:18:22Z</time>
      </trkpt>
      <trkpt lat="44.70953" lon="4.41223">
        <ele>628</ele>
        <time>2024-05-04T11:18:29Z</time>
      </trkpt>
      <trkpt lat="44.70967" lon="4.41247">
        <ele>628</ele>
        <time>2024-05-04T11:18:34Z</time>
      </trkpt>
      <trkpt lat="44.7098" lon="4.41253">
        <ele>628</ele>
        <time>2024-05-04T11:18:37Z</time>
      </trkpt>
      <trkpt lat="44.71025" lon="4.41245">
        <ele>633</ele>
        <time>2024-05-04T11:18:47Z</time>
      </trkpt>
      <trkpt lat="44.71052" lon="4.41234">
        <ele>636</ele>
        <time>2024-05-04T11:18:54Z</time>
      </trkpt>
      <trkpt lat="44.71097" lon="4.41208">
        <ele>644</ele>
        <time>2024-05-04T11:19:05Z</time>
      </trkpt>
      <trkpt lat="44.71117" lon="4.41207">
        <ele>646</ele>
        <time>2024-05-04T11:19:10Z</time>
      </trkpt>
      <trkpt lat="44.71135" lon="4.41201">
        <ele>648</ele>
        <time>2024-05-04T11:19:14Z</time>
      </trkpt>
      <trkpt lat="44.7114" lon="4.41202">
        <ele>648</ele>
        <time>2024-05-04T11:19:16Z</time>
      </trkpt>
      <trkpt lat="44.71146" lon="4.41212">
        <ele>648</ele>
        <time>2024-05-04T11:19:18Z</time>
      </trkpt>
      <trkpt lat="44.71161" lon="4.41255">
        <ele>647</ele>
        <time>2024-05-04T11:19:26Z</time>
      </trkpt>
      <trkpt lat="44.71163" lon="4.41283">
        <ele>644</ele>
        <time>2024-05-04T11:19:30Z</time>
      </trkpt>
      <trkpt lat="44.71171" lon="4.41305">
        <ele>644</ele>
        <time>2024-05-04T11:19:34Z</time>
      </trkpt>
      <trkpt lat="44.71181" lon="4.4134">
        <ele>643</ele>
        <time>2024-05-04T11:19:41Z</time>
      </trkpt>
      <trkpt lat="44.71198" lon="4.41359">
        <ele>646</ele>
        <time>2024-05-04T11:19:46Z</time>
      </trkpt>
      <trkpt lat="44.71218" lon="4.41375">
        <ele>652</ele>
        <time>2024-05-04T11:19:51Z</time>
      </trkpt>
      <trkpt lat="44.71228" lon="4.41406">
        <ele>651</ele>
        <time>2024-05-04T11:19:57Z</time>
      </trkpt>
      <trkpt lat="44.71236" lon="4.4145">
        <ele>650</ele>
        <time>2024-05-04T11:20:04Z</time>
      </trkpt>
      <trkpt lat="44.71251" lon="4.41501">
        <ele>650</ele>
        <time>2024-05-04T11:20:13Z</time>
      </trkpt>
      <trkpt lat="44.71276" lon="4.41528">
        <ele>653</ele>
        <time>2024-05-04T11:20:21Z</time>
      </trkpt>
      <trkpt lat="44.71293" lon="4.41557">
        <ele>653</ele>
        <time>2024-05-04T11:20:27Z</time>
      </trkpt>
      <trkpt lat="44.71307" lon="4.41586">
        <ele>652</ele>
        <time>2024-05-04T11:20:33Z</time>
      </trkpt>
      <trkpt lat="44.71343" lon="4.41614">
        <ele>655</ele>
        <time>2024-05-04T11:20:43Z</time>
      </trkpt>
      <trkpt lat="44.71359" lon="4.41638">
        <ele>651</ele>
        <time>2024-05-04T11:20:48Z</time>
      </trkpt>
      <trkpt lat="44.71375" lon="4.41651">
        <ele>650</ele>
        <time>2024-05-04T11:20:52Z</time>
      </trkpt>
      <trkpt lat="44.71402" lon="4.41681">
        <ele>645</ele>
        <time>2024-05-04T11:21:00Z</time>
      </trkpt>
      <trkpt lat="44.71421" lon="4.41695">
        <ele>644</ele>
        <time>2024-05-04T11:21:05Z</time>
      </trkpt>
      <trkpt lat="44.71435" lon="4.41699">
        <ele>642</ele>
        <time>2024-05-04T11:21:09Z</time>
      </trkpt>
      <trkpt lat="44.71444" lon="4.41697">
        <ele>642</ele>
        <time>2024-05-04T11:21:11Z</time>
      </trkpt>
      <trkpt lat="44.71477" lon="4.41684">
        <ele>645</ele>
        <time>2024-05-04T11:21:19Z</time>
      </trkpt>
      <trkpt lat="44.71505" lon="4.41677">
        <ele>646</ele>
        <time>2024-05-04T11:21:25Z</time>
      </trkpt>
      <trkpt lat="44.7154" lon="4.41653">
        <ele>649</ele>
        <time>2024-05-04T11:21:35Z</time>
      </trkpt>
      <trkpt lat="44.71549" lon="4.41642">
        <ele>651</ele>
        <time>2024-05-04T11:21:37Z</time>
      </trkpt>
      <trkpt lat="44.71555" lon="4.41625">
        <ele>655</ele>
        <time>2024-05-04T11:21:40Z</time>
      </trkpt>
      <trkpt lat="44.71556" lon="4.41617">
        <ele>657</ele>
        <time>2024-05-04T11:21:42Z</time>
      </trkpt>
      <trkpt lat="44.71561" lon="4.41614">
        <ele>657</ele>
        <time>2024-05-04T11:21:43Z</time>
      </trkpt>
      <trkpt lat="44.71571" lon="4.41615">
        <ele>656</ele>
        <time>2024-05-04T11:21:45Z</time>
      </trkpt>
      <trkpt lat="44.71594" lon="4.4163">
        <ele>652</ele>
        <time>2024-05-04T11:21:51Z</time>
      </trkpt>
      <trkpt lat="44.71636" lon="4.41618">
        <ele>664</ele>
        <time>2024-05-04T11:22:01Z</time>
      </trkpt>
      <trkpt lat="44.71645" lon="4.41622">
        <ele>665</ele>
        <time>2024-05-04T11:22:04Z</time>
      </trkpt>
      <trkpt lat="44.71653" lon="4.41637">
        <ele>664</ele>
        <time>2024-05-04T11:22:07Z</time>
      </trkpt>
      <trkpt lat="44.71675" lon="4.41707">
        <ele>654</ele>
        <time>2024-05-04T11:22:19Z</time>
      </trkpt>
      <trkpt lat="44.71714" lon="4.41767">
        <ele>654</ele>
        <time>2024-05-04T11:22:33Z</time>
      </trkpt>
      <trkpt lat="44.71733" lon="4.41815">
        <ele>649</ele>
        <time>2024-05-04T11:22:42Z</time>
      </trkpt>
      <trkpt lat="44.71773" lon="4.41851">
        <ele>653</ele>
        <time>2024-05-04T11:22:53Z</time>
      </trkpt>
      <trkpt lat="44.71818" lon="4.41901">
        <ele>652</ele>
        <time>2024-05-04T11:23:06Z</time>
      </trkpt>
      <trkpt lat="44.71857" lon="4.41953">
        <ele>649</ele>
        <time>2024-05-04T11:23:19Z</time>
      </trkpt>
      <trkpt lat="44.71883" lon="4.41971">
        <ele>653</ele>
        <time>2024-05-04T11:23:26Z</time>
      </trkpt>
      <trkpt lat="44.71893" lon="4.41984">
        <ele>654</ele>
        <time>2024-05-04T11:23:29Z</time>
      </trkpt>
      <trkpt lat="44.71889" lon="4.42042">
        <ele>644</ele>
        <time>2024-05-04T11:23:39Z</time>
      </trkpt>
      <trkpt lat="44.71894" lon="4.42057">
        <ele>644</ele>
        <time>2024-05-04T11:23:41Z</time>
      </trkpt>
      <trkpt lat="44.71921" lon="4.4207">
        <ele>654</ele>
        <time>2024-05-04T11:23:48Z</time>
      </trkpt>
      <trkpt lat="44.7194" lon="4.42096">
        <ele>656</ele>
        <time>2024-05-04T11:23:54Z</time>
      </trkpt>
      <trkpt lat="44.71956" lon="4.42138">
        <ele>656</ele>
        <time>2024-05-04T11:24:02Z</time>
      </trkpt>
      <trkpt lat="44.71959" lon="4.42212">
        <ele>649</ele>
        <time>2024-05-04T11:24:14Z</time>
      </trkpt>
      <trkpt lat="44.71983" lon="4.42319">
        <ele>652</ele>
        <time>2024-05-04T11:24:33Z</time>
      </trkpt>
      <trkpt lat="44.71987" lon="4.42373">
        <ele>649</ele>
        <time>2024-05-04T11:24:42Z</time>
      </trkpt>
      <trkpt lat="44.71992" lon="4.42389">
        <ele>649</ele>
        <time>2024-05-04T11:24:45Z</time>
      </trkpt>
      <trkpt lat="44.71992" lon="4.42394">
        <ele>649</ele>
        <time>2024-05-04T11:24:46Z</time>
      </trkpt>
      <trkpt lat="44.71992" lon="4.42389">
        <ele>649</ele>
        <time>2024-05-04T11:24:47Z</time>
      </trkpt>
      <trkpt lat="44.72" lon="4.42359">
        <ele>655</ele>
        <time>2024-05-04T11:24:52Z</time>
      </trkpt>
      <trkpt lat="44.7201" lon="4.42337">
        <ele>660</ele>
        <time>2024-05-04T11:24:56Z</time>
      </trkpt>
      <trkpt lat="44.72012" lon="4.42326">
        <ele>661</ele>
        <time>2024-05-04T11:24:58Z</time>
      </trkpt>
      <trkpt lat="44.72007" lon="4.42281">
        <ele>662</ele>
        <time>2024-05-04T11:25:06Z</time>
      </trkpt>
      <trkpt lat="44.72001" lon="4.42266">
        <ele>661</ele>
        <time>2024-05-04T11:25:09Z</time>
      </trkpt>
      <trkpt lat="44.72005" lon="4.42208">
        <ele>667</ele>
        <time>2024-05-04T11:25:18Z</time>
      </trkpt>
      <trkpt lat="44.72002" lon="4.42173">
        <ele>669</ele>
        <time>2024-05-04T11:25:24Z</time>
      </trkpt>
      <trkpt lat="44.71991" lon="4.42149">
        <ele>667</ele>
        <time>2024-05-04T11:25:29Z</time>
      </trkpt>
      <trkpt lat="44.71988" lon="4.42127">
        <ele>669</ele>
        <time>2024-05-04T11:25:33Z</time>
      </trkpt>
      <trkpt lat="44.71982" lon="4.42115">
        <ele>668</ele>
        <time>2024-05-04T11:25:35Z</time>
      </trkpt>
      <trkpt lat="44.71982" lon="4.42088">
        <ele>671</ele>
        <time>2024-05-04T11:25:39Z</time>
      </trkpt>
      <trkpt lat="44.71979" lon="4.42079">
        <ele>671</ele>
        <time>2024-05-04T11:25:41Z</time>
      </trkpt>
      <trkpt lat="44.71976" lon="4.42041">
        <ele>673</ele>
        <time>2024-05-04T11:25:47Z</time>
      </trkpt>
      <trkpt lat="44.71988" lon="4.42004">
        <ele>679</ele>
        <time>2024-05-04T11:25:54Z</time>
      </trkpt>
      <trkpt lat="44.71996" lon="4.41995">
        <ele>682</ele>
        <time>2024-05-04T11:25:57Z</time>
      </trkpt>
      <trkpt lat="44.72" lon="4.41985">
        <ele>683</ele>
        <time>2024-05-04T11:25:59Z</time>
      </trkpt>
      <trkpt lat="44.72" lon="4.41959">
        <ele>683</ele>
        <time>2024-05-04T11:26:03Z</time>
      </trkpt>
      <trkpt lat="44.72002" lon="4.41951">
        <ele>683</ele>
        <time>2024-05-04T11:26:04Z</time>
      </trkpt>
      <trkpt lat="44.72008" lon="4.41953">
        <ele>685</ele>
        <time>2024-05-04T11:26:06Z</time>
      </trkpt>
      <trkpt lat="44.72018" lon="4.41995">
        <ele>688</ele>
        <time>2024-05-04T11:26:13Z</time>
      </trkpt>
      <trkpt lat="44.72018" lon="4.42014">
        <ele>687</ele>
        <time>2024-05-04T11:26:16Z</time>
      </trkpt>
      <trkpt lat="44.72021" lon="4.42051">
        <ele>686</ele>
        <time>2024-05-04T11:26:22Z</time>
      </trkpt>
      <trkpt lat="44.72028" lon="4.42073">
        <ele>687</ele>
        <time>2024-05-04T11:26:26Z</time>
      </trkpt>
      <trkpt lat="44.72033" lon="4.42098">
        <ele>686</ele>
        <time>2024-05-04T11:26:31Z</time>
      </trkpt>
      <trkpt lat="44.72044" lon="4.42125">
        <ele>687</ele>
        <time>2024-05-04T11:26:36Z</time>
      </trkpt>
      <trkpt lat="44.72057" lon="4.42172">
        <ele>686</ele>
        <time>2024-05-04T11:26:44Z</time>
      </trkpt>
      <trkpt lat="44.72069" lon="4.42203">
        <ele>687</ele>
        <time>2024-05-04T11:26:50Z</time>
      </trkpt>
      <trkpt lat="44.72082" lon="4.42214">
        <ele>691</ele>
        <time>2024-05-04T11:26:54Z</time>
      </trkpt>
      <trkpt lat="44.72102" lon="4.4221">
        <ele>691</ele>
        <time>2024-05-04T11:26:58Z</time>
      </trkpt>
      <trkpt lat="44.72118" lon="4.42201">
        <ele>691</ele>
        <time>2024-05-04T11:27:02Z</time>
      </trkpt>
      <trkpt lat="44.72156" lon="4.42134">
        <ele>703</ele>
        <time>2024-05-04T11:27:17Z</time>
      </trkpt>
      <trkpt lat="44.7217" lon="4.42127">
        <ele>705</ele>
        <time>2024-05-04T11:27:20Z</time>
      </trkpt>
      <trkpt lat="44.72187" lon="4.42101">
        <ele>713</ele>
        <time>2024-05-04T11:27:26Z</time>
      </trkpt>
      <trkpt lat="44.72196" lon="4.421">
        <ele>714</ele>
        <time>2024-05-04T11:27:28Z</time>
      </trkpt>
      <trkpt lat="44.7221" lon="4.42107">
        <ele>713</ele>
        <time>2024-05-04T11:27:31Z</time>
      </trkpt>
      <trkpt lat="44.72267" lon="4.42121">
        <ele>714</ele>
        <time>2024-05-04T11:27:45Z</time>
      </trkpt>
      <trkpt lat="44.72306" lon="4.42144">
        <ele>711</ele>
        <time>2024-05-04T11:27:55Z</time>
      </trkpt>
      <trkpt lat="44.72323" lon="4.42147">
        <ele>712</ele>
        <time>2024-05-04T11:27:59Z</time>
      </trkpt>
      <trkpt lat="44.72341" lon="4.42142">
        <ele>714</ele>
        <time>2024-05-04T11:28:03Z</time>
      </trkpt>
      <trkpt lat="44.72359" lon="4.42133">
        <ele>717</ele>
        <time>2024-05-04T11:28:08Z</time>
      </trkpt>
      <trkpt lat="44.72376" lon="4.42129">
        <ele>718</ele>
        <time>2024-05-04T11:28:12Z</time>
      </trkpt>
      <trkpt lat="44.72398" lon="4.42115">
        <ele>720</ele>
        <time>2024-05-04T11:28:17Z</time>
      </trkpt>
      <trkpt lat="44.72409" lon="4.42101">
        <ele>722</ele>
        <time>2024-05-04T11:28:21Z</time>
      </trkpt>
      <trkpt lat="44.72422" lon="4.42093">
        <ele>723</ele>
        <time>2024-05-04T11:28:24Z</time>
      </trkpt>
      <trkpt lat="44.72438" lon="4.42089">
        <ele>724</ele>
        <time>2024-05-04T11:28:28Z</time>
      </trkpt>
      <trkpt lat="44.72468" lon="4.42078">
        <ele>725</ele>
        <time>2024-05-04T11:28:35Z</time>
      </trkpt>
      <trkpt lat="44.72486" lon="4.42074">
        <ele>725</ele>
        <time>2024-05-04T11:28:39Z</time>
      </trkpt>
      <trkpt lat="44.72519" lon="4.42052">
        <ele>724</ele>
        <time>2024-05-04T11:28:48Z</time>
      </trkpt>
      <trkpt lat="44.7253" lon="4.42028">
        <ele>722</ele>
        <time>2024-05-04T11:28:53Z</time>
      </trkpt>
      <trkpt lat="44.72534" lon="4.4201">
        <ele>719</ele>
        <time>2024-05-04T11:28:56Z</time>
      </trkpt>
      <trkpt lat="44.72541" lon="4.4199">
        <ele>716</ele>
        <time>2024-05-04T11:28:59Z</time>
      </trkpt>
      <trkpt lat="44.72558" lon="4.41974">
        <ele>714</ele>
        <time>2024-05-04T11:29:04Z</time>
      </trkpt>
      <trkpt lat="44.72567" lon="4.41946">
        <ele>709</ele>
        <time>2024-05-04T11:29:09Z</time>
      </trkpt>
      <trkpt lat="44.72577" lon="4.41936">
        <ele>708</ele>
        <time>2024-05-04T11:29:12Z</time>
      </trkpt>
      <trkpt lat="44.72607" lon="4.41854">
        <ele>688</ele>
        <time>2024-05-04T11:29:27Z</time>
      </trkpt>
      <trkpt lat="44.72624" lon="4.41829">
        <ele>680</ele>
        <time>2024-05-04T11:29:33Z</time>
      </trkpt>
      <trkpt lat="44.7263" lon="4.41801">
        <ele>673</ele>
        <time>2024-05-04T11:29:38Z</time>
      </trkpt>
      <trkpt lat="44.7263" lon="4.41783">
        <ele>669</ele>
        <time>2024-05-04T11:29:41Z</time>
      </trkpt>
      <trkpt lat="44.72637" lon="4.41768">
        <ele>665</ele>
        <time>2024-05-04T11:29:44Z</time>
      </trkpt>
      <trkpt lat="44.72638" lon="4.41745">
        <ele>659</ele>
        <time>2024-05-04T11:29:48Z</time>
      </trkpt>
      <trkpt lat="44.72647" lon="4.4173">
        <ele>655</ele>
        <time>2024-05-04T11:29:51Z</time>
      </trkpt>
      <trkpt lat="44.72668" lon="4.41717">
        <ele>651</ele>
        <time>2024-05-04T11:29:56Z</time>
      </trkpt>
      <trkpt lat="44.72678" lon="4.41717">
        <ele>649</ele>
        <time>2024-05-04T11:29:59Z</time>
      </trkpt>
      <trkpt lat="44.727" lon="4.41693">
        <ele>640</ele>
        <time>2024-05-04T11:30:05Z</time>
      </trkpt>
      <trkpt lat="44.72754" lon="4.41669">
        <ele>626</ele>
        <time>2024-05-04T11:30:19Z</time>
      </trkpt>
      <trkpt lat="44.72762" lon="4.41675">
        <ele>628</ele>
        <time>2024-05-04T11:30:21Z</time>
      </trkpt>
      <trkpt lat="44.72781" lon="4.41652">
        <ele>621</ele>
        <time>2024-05-04T11:30:26Z</time>
      </trkpt>
      <trkpt lat="44.72812" lon="4.41628">
        <ele>614</ele>
        <time>2024-05-04T11:30:35Z</time>
      </trkpt>
      <trkpt lat="44.72831" lon="4.41608">
        <ele>607</ele>
        <time>2024-05-04T11:30:40Z</time>
      </trkpt>
      <trkpt lat="44.72841" lon="4.41595">
        <ele>602</ele>
        <time>2024-05-04T11:30:43Z</time>
      </trkpt>
      <trkpt lat="44.72854" lon="4.41585">
        <ele>600</ele>
        <time>2024-05-04T11:30:47Z</time>
      </trkpt>
      <trkpt lat="44.72906" lon="4.41565">
        <ele>595</ele>
        <time>2024-05-04T11:31:00Z</time>
      </trkpt>
      <trkpt lat="44.72936" lon="4.41551">
        <ele>587</ele>
        <time>2024-05-04T11:31:07Z</time>
      </trkpt>
      <trkpt lat="44.72952" lon="4.41551">
        <ele>585</ele>
        <time>2024-05-04T11:31:11Z</time>
      </trkpt>
      <trkpt lat="44.7297" lon="4.41556">
        <ele>583</ele>
        <time>2024-05-04T11:31:15Z</time>
      </trkpt>
      <trkpt lat="44.72985" lon="4.41567">
        <ele>583</ele>
        <time>2024-05-04T11:31:19Z</time>
      </trkpt>
      <trkpt lat="44.73018" lon="4.41603">
        <ele>587</ele>
        <time>2024-05-04T11:31:29Z</time>
      </trkpt>
      <trkpt lat="44.73028" lon="4.41609">
        <ele>588</ele>
        <time>2024-05-04T11:31:31Z</time>
      </trkpt>
      <trkpt lat="44.73041" lon="4.4161">
        <ele>587</ele>
        <time>2024-05-04T11:31:34Z</time>
      </trkpt>
      <trkpt lat="44.73066" lon="4.41604">
        <ele>581</ele>
        <time>2024-05-04T11:31:40Z</time>
      </trkpt>
      <trkpt lat="44.73107" lon="4.41586">
        <ele>574</ele>
        <time>2024-05-04T11:31:50Z</time>
      </trkpt>
      <trkpt lat="44.73122" lon="4.41584">
        <ele>573</ele>
        <time>2024-05-04T11:31:54Z</time>
      </trkpt>
      <trkpt lat="44.73134" lon="4.41577">
        <ele>573</ele>
        <time>2024-05-04T11:31:57Z</time>
      </trkpt>
      <trkpt lat="44.73154" lon="4.41573">
        <ele>574</ele>
        <time>2024-05-04T11:32:01Z</time>
      </trkpt>
      <trkpt lat="44.73165" lon="4.41576">
        <ele>573</ele>
        <time>2024-05-04T11:32:04Z</time>
      </trkpt>
      <trkpt lat="44.73166" lon="4.41581">
        <ele>573</ele>
        <time>2024-05-04T11:32:05Z</time>
      </trkpt>
      <trkpt lat="44.73175" lon="4.41585">
        <ele>573</ele>
        <time>2024-05-04T11:32:07Z</time>
      </trkpt>
      <trkpt lat="44.73199" lon="4.41609">
        <ele>576</ele>
        <time>2024-05-04T11:32:14Z</time>
      </trkpt>
      <trkpt lat="44.73229" lon="4.41629">
        <ele>579</ele>
        <time>2024-05-04T11:32:22Z</time>
      </trkpt>
      <trkpt lat="44.73248" lon="4.41635">
        <ele>580</ele>
        <time>2024-05-04T11:32:26Z</time>
      </trkpt>
      <trkpt lat="44.73259" lon="4.41645">
        <ele>581</ele>
        <time>2024-05-04T11:32:29Z</time>
      </trkpt>
      <trkpt lat="44.73266" lon="4.41657">
        <ele>583</ele>
        <time>2024-05-04T11:32:32Z</time>
      </trkpt>
      <trkpt lat="44.73272" lon="4.41675">
        <ele>584</ele>
        <time>2024-05-04T11:32:35Z</time>
      </trkpt>
      <trkpt lat="44.7329" lon="4.41695">
        <ele>587</ele>
        <time>2024-05-04T11:32:41Z</time>
      </trkpt>
      <trkpt lat="44.73304" lon="4.41726">
        <ele>591</ele>
        <time>2024-05-04T11:32:47Z</time>
      </trkpt>
      <trkpt lat="44.73314" lon="4.4173">
        <ele>591</ele>
        <time>2024-05-04T11:32:49Z</time>
      </trkpt>
      <trkpt lat="44.73323" lon="4.41739">
        <ele>593</ele>
        <time>2024-05-04T11:32:52Z</time>
      </trkpt>
      <trkpt lat="44.73339" lon="4.41758">
        <ele>596</ele>
        <time>2024-05-04T11:32:57Z</time>
      </trkpt>
      <trkpt lat="44.73362" lon="4.41798">
        <ele>601</ele>
        <time>2024-05-04T11:33:05Z</time>
      </trkpt>
      <trkpt lat="44.73372" lon="4.41809">
        <ele>603</ele>
        <time>2024-05-04T11:33:08Z</time>
      </trkpt>
      <trkpt lat="44.73383" lon="4.41814">
        <ele>603</ele>
        <time>2024-05-04T11:33:11Z</time>
      </trkpt>
      <trkpt lat="44.73398" lon="4.41817">
        <ele>603</ele>
        <time>2024-05-04T11:33:14Z</time>
      </trkpt>
      <trkpt lat="44.73439" lon="4.41812">
        <ele>600</ele>
        <time>2024-05-04T11:33:24Z</time>
      </trkpt>
      <trkpt lat="44.73447" lon="4.41814">
        <ele>600</ele>
        <time>2024-05-04T11:33:26Z</time>
      </trkpt>
      <trkpt lat="44.7352" lon="4.41834">
        <ele>600</ele>
        <time>2024-05-04T11:33:43Z</time>
      </trkpt>
      <trkpt lat="44.73555" lon="4.41839">
        <ele>599</ele>
        <time>2024-05-04T11:33:51Z</time>
      </trkpt>
      <trkpt lat="44.73654" lon="4.41848">
        <ele>596</ele>
        <time>2024-05-04T11:34:15Z</time>
      </trkpt>
      <trkpt lat="44.73672" lon="4.41855">
        <ele>597</ele>
        <time>2024-05-04T11:34:19Z</time>
      </trkpt>
      <trkpt lat="44.7372" lon="4.41883">
        <ele>601</ele>
        <time>2024-05-04T11:34:31Z</time>
      </trkpt>
      <trkpt lat="44.73727" lon="4.41886">
        <ele>600</ele>
        <time>2024-05-04T11:34:33Z</time>
      </trkpt>
      <trkpt lat="44.73738" lon="4.41886">
        <ele>600</ele>
        <time>2024-05-04T11:34:35Z</time>
      </trkpt>
      <trkpt lat="44.73742" lon="4.41899">
        <ele>600</ele>
        <time>2024-05-04T11:34:38Z</time>
      </trkpt>
      <trkpt lat="44.73755" lon="4.41926">
        <ele>601</ele>
        <time>2024-05-04T11:34:43Z</time>
      </trkpt>
      <trkpt lat="44.738" lon="4.4197">
        <ele>607</ele>
        <time>2024-05-04T11:34:56Z</time>
      </trkpt>
      <trkpt lat="44.73842" lon="4.41995">
        <ele>606</ele>
        <time>2024-05-04T11:35:07Z</time>
      </trkpt>
      <trkpt lat="44.73856" lon="4.42011">
        <ele>608</ele>
        <time>2024-05-04T11:35:11Z</time>
      </trkpt>
      <trkpt lat="44.73859" lon="4.42012">
        <ele>608</ele>
        <time>2024-05-04T11:35:11Z</time>
      </trkpt>
      <trkpt lat="44.73877" lon="4.41998">
        <ele>606</ele>
        <time>2024-05-04T11:35:16Z</time>
      </trkpt>
      <trkpt lat="44.73885" lon="4.41996">
        <ele>606</ele>
        <time>2024-05-04T11:35:18Z</time>
      </trkpt>
      <trkpt lat="44.73921" lon="4.42016">
        <ele>607</ele>
        <time>2024-05-04T11:35:27Z</time>
      </trkpt>
      <trkpt lat="44.73929" lon="4.42028">
        <ele>608</ele>
        <time>2024-05-04T11:35:30Z</time>
      </trkpt>
      <trkpt lat="44.7394" lon="4.42038">
        <ele>609</ele>
        <time>2024-05-04T11:35:33Z</time>
      </trkpt>
      <trkpt lat="44.73953" lon="4.42042">
        <ele>609</ele>
        <time>2024-05-04T11:35:36Z</time>
      </trkpt>
      <trkpt lat="44.73964" lon="4.42047">
        <ele>610</ele>
        <time>2024-05-04T11:35:39Z</time>
      </trkpt>
      <trkpt lat="44.73979" lon="4.42062">
        <ele>611</ele>
        <time>2024-05-04T11:35:43Z</time>
      </trkpt>
      <trkpt lat="44.74003" lon="4.42077">
        <ele>613</ele>
        <time>2024-05-04T11:35:49Z</time>
      </trkpt>
      <trkpt lat="44.74033" lon="4.42082">
        <ele>615</ele>
        <time>2024-05-04T11:35:56Z</time>
      </trkpt>
      <trkpt lat="44.7404" lon="4.42083">
        <ele>615</ele>
        <time>2024-05-04T11:35:58Z</time>
      </trkpt>
      <trkpt lat="44.74057" lon="4.4209">
        <ele>616</ele>
        <time>2024-05-04T11:36:02Z</time>
      </trkpt>
      <trkpt lat="44.74075" lon="4.42107">
        <ele>618</ele>
        <time>2024-05-04T11:36:07Z</time>
      </trkpt>
      <trkpt lat="44.74106" lon="4.42127">
        <ele>621</ele>
        <time>2024-05-04T11:36:15Z</time>
      </trkpt>
      <trkpt lat="44.74117" lon="4.42129">
        <ele>623</ele>
        <time>2024-05-04T11:36:18Z</time>
      </trkpt>
      <trkpt lat="44.74124" lon="4.4213">
        <ele>624</ele>
        <time>2024-05-04T11:36:19Z</time>
      </trkpt>
      <trkpt lat="44.74136" lon="4.42101">
        <ele>623</ele>
        <time>2024-05-04T11:36:25Z</time>
      </trkpt>
      <trkpt lat="44.74142" lon="4.4208">
        <ele>622</ele>
        <time>2024-05-04T11:36:29Z</time>
      </trkpt>
      <trkpt lat="44.74148" lon="4.42031">
        <ele>620</ele>
        <time>2024-05-04T11:36:37Z</time>
      </trkpt>
      <trkpt lat="44.74158" lon="4.42011">
        <ele>620</ele>
        <time>2024-05-04T11:36:41Z</time>
      </trkpt>
      <trkpt lat="44.7417" lon="4.41995">
        <ele>621</ele>
        <time>2024-05-04T11:36:45Z</time>
      </trkpt>
      <trkpt lat="44.74177" lon="4.41989">
        <ele>622</ele>
        <time>2024-05-04T11:36:47Z</time>
      </trkpt>
      <trkpt lat="44.74219" lon="4.41989">
        <ele>624</ele>
        <time>2024-05-04T11:36:57Z</time>
      </trkpt>
      <trkpt lat="44.74248" lon="4.41993">
        <ele>625</ele>
        <time>2024-05-04T11:37:03Z</time>
      </trkpt>
      <trkpt lat="44.74273" lon="4.42003">
        <ele>626</ele>
        <time>2024-05-04T11:37:09Z</time>
      </trkpt>
      <trkpt lat="44.74286" lon="4.42005">
        <ele>627</ele>
        <time>2024-05-04T11:37:12Z</time>
      </trkpt>
      <trkpt lat="44.74291" lon="4.4201">
        <ele>628</ele>
        <time>2024-05-04T11:37:14Z</time>
      </trkpt>
      <trkpt lat="44.74315" lon="4.42001">
        <ele>629</ele>
        <time>2024-05-04T11:37:20Z</time>
      </trkpt>
      <trkpt lat="44.74324" lon="4.41999">
        <ele>629</ele>
        <time>2024-05-04T11:37:22Z</time>
      </trkpt>
      <trkpt lat="44.7434" lon="4.41991">
        <ele>632</ele>
        <time>2024-05-04T11:37:26Z</time>
      </trkpt>
      <trkpt lat="44.74345" lon="4.41987">
        <ele>632</ele>
        <time>2024-05-04T11:37:27Z</time>
      </trkpt>
      <trkpt lat="44.74373" lon="4.41948">
        <ele>639</ele>
        <time>2024-05-04T11:37:36Z</time>
      </trkpt>
      <trkpt lat="44.7439" lon="4.4196">
        <ele>638</ele>
        <time>2024-05-04T11:37:41Z</time>
      </trkpt>
      <trkpt lat="44.74401" lon="4.4196">
        <ele>639</ele>
        <time>2024-05-04T11:37:43Z</time>
      </trkpt>
      <trkpt lat="44.74409" lon="4.41957">
        <ele>639</ele>
        <time>2024-05-04T11:37:45Z</time>
      </trkpt>
      <trkpt lat="44.74415" lon="4.41959">
        <ele>639</ele>
        <time>2024-05-04T11:37:47Z</time>
      </trkpt>
      <trkpt lat="44.74422" lon="4.41965">
        <ele>640</ele>
        <time>2024-05-04T11:37:49Z</time>
      </trkpt>
      <trkpt lat="44.74433" lon="4.41968">
        <ele>641</ele>
        <time>2024-05-04T11:37:51Z</time>
      </trkpt>
      <trkpt lat="44.74436" lon="4.41976">
        <ele>640</ele>
        <time>2024-05-04T11:37:53Z</time>
      </trkpt>
      <trkpt lat="44.74447" lon="4.41976">
        <ele>642</ele>
        <time>2024-05-04T11:37:55Z</time>
      </trkpt>
      <trkpt lat="44.74458" lon="4.4198">
        <ele>643</ele>
        <time>2024-05-04T11:37:58Z</time>
      </trkpt>
      <trkpt lat="44.74466" lon="4.41983">
        <ele>644</ele>
        <time>2024-05-04T11:38:00Z</time>
      </trkpt>
      <trkpt lat="44.7448" lon="4.41983">
        <ele>645</ele>
        <time>2024-05-04T11:38:03Z</time>
      </trkpt>
      <trkpt lat="44.74487" lon="4.41977">
        <ele>646</ele>
        <time>2024-05-04T11:38:05Z</time>
      </trkpt>
      <trkpt lat="44.74504" lon="4.4197">
        <ele>649</ele>
        <time>2024-05-04T11:38:09Z</time>
      </trkpt>
      <trkpt lat="44.74527" lon="4.41971">
        <ele>655</ele>
        <time>2024-05-04T11:38:15Z</time>
      </trkpt>
      <trkpt lat="44.74549" lon="4.41911">
        <ele>660</ele>
        <time>2024-05-04T11:38:26Z</time>
      </trkpt>
      <trkpt lat="44.74552" lon="4.4191">
        <ele>660</ele>
        <time>2024-05-04T11:38:27Z</time>
      </trkpt>
      <trkpt lat="44.74563" lon="4.41981">
        <ele>665</ele>
        <time>2024-05-04T11:38:39Z</time>
      </trkpt>
      <trkpt lat="44.74581" lon="4.42032">
        <ele>669</ele>
        <time>2024-05-04T11:38:48Z</time>
      </trkpt>
      <trkpt lat="44.74623" lon="4.42095">
        <ele>677</ele>
        <time>2024-05-04T11:39:02Z</time>
      </trkpt>
      <trkpt lat="44.74637" lon="4.42122">
        <ele>679</ele>
        <time>2024-05-04T11:39:08Z</time>
      </trkpt>
      <trkpt lat="44.7464" lon="4.42132">
        <ele>678</ele>
        <time>2024-05-04T11:39:10Z</time>
      </trkpt>
      <trkpt lat="44.74656" lon="4.42134">
        <ele>679</ele>
        <time>2024-05-04T11:39:13Z</time>
      </trkpt>
      <trkpt lat="44.74659" lon="4.42131">
        <ele>680</ele>
        <time>2024-05-04T11:39:14Z</time>
      </trkpt>
      <trkpt lat="44.74704" lon="4.42154">
        <ele>685</ele>
        <time>2024-05-04T11:39:25Z</time>
      </trkpt>
      <trkpt lat="44.74715" lon="4.42155">
        <ele>687</ele>
        <time>2024-05-04T11:39:28Z</time>
      </trkpt>
      <trkpt lat="44.74768" lon="4.42176">
        <ele>695</ele>
        <time>2024-05-04T11:39:41Z</time>
      </trkpt>
      <trkpt lat="44.74807" lon="4.42185">
        <ele>702</ele>
        <time>2024-05-04T11:39:50Z</time>
      </trkpt>
      <trkpt lat="44.74831" lon="4.42196">
        <ele>704</ele>
        <time>2024-05-04T11:39:56Z</time>
      </trkpt>
      <trkpt lat="44.74868" lon="4.42219">
        <ele>709</ele>
        <time>2024-05-04T11:40:05Z</time>
      </trkpt>
      <trkpt lat="44.7488" lon="4.42236">
        <ele>709</ele>
        <time>2024-05-04T11:40:09Z</time>
      </trkpt>
      <trkpt lat="44.74893" lon="4.42271">
        <ele>710</ele>
        <time>2024-05-04T11:40:16Z</time>
      </trkpt>
      <trkpt lat="44.74908" lon="4.42302">
        <ele>712</ele>
        <time>2024-05-04T11:40:22Z</time>
      </trkpt>
      <trkpt lat="44.74917" lon="4.42325">
        <ele>712</ele>
        <time>2024-05-04T11:40:27Z</time>
      </trkpt>
      <trkpt lat="44.74934" lon="4.42359">
        <ele>718</ele>
        <time>2024-05-04T11:40:33Z</time>
      </trkpt>
      <trkpt lat="44.7494" lon="4.42364">
        <ele>720</ele>
        <time>2024-05-04T11:40:35Z</time>
      </trkpt>
      <trkpt lat="44.74943" lon="4.42361">
        <ele>721</ele>
        <time>2024-05-04T11:40:36Z</time>
      </trkpt>
      <trkpt lat="44.74945" lon="4.42356">
        <ele>722</ele>
        <time>2024-05-04T11:40:37Z</time>
      </trkpt>
      <trkpt lat="44.74943" lon="4.42344">
        <ele>722</ele>
        <time>2024-05-04T11:40:39Z</time>
      </trkpt>
      <trkpt lat="44.74944" lon="4.42328">
        <ele>723</ele>
        <time>2024-05-04T11:40:42Z</time>
      </trkpt>
      <trkpt lat="44.74953" lon="4.42277">
        <ele>732</ele>
        <time>2024-05-04T11:40:50Z</time>
      </trkpt>
      <trkpt lat="44.74953" lon="4.42251">
        <ele>735</ele>
        <time>2024-05-04T11:40:55Z</time>
      </trkpt>
      <trkpt lat="44.74954" lon="4.42233">
        <ele>737</ele>
        <time>2024-05-04T11:40:58Z</time>
      </trkpt>
      <trkpt lat="44.7497" lon="4.42182">
        <ele>749</ele>
        <time>2024-05-04T11:41:07Z</time>
      </trkpt>
      <trkpt lat="44.74971" lon="4.42173">
        <ele>750</ele>
        <time>2024-05-04T11:41:08Z</time>
      </trkpt>
      <trkpt lat="44.74966" lon="4.42137">
        <ele>755</ele>
        <time>2024-05-04T11:41:14Z</time>
      </trkpt>
      <trkpt lat="44.74986" lon="4.42156">
        <ele>758</ele>
        <time>2024-05-04T11:41:20Z</time>
      </trkpt>
      <trkpt lat="44.74994" lon="4.4216">
        <ele>761</ele>
        <time>2024-05-04T11:41:22Z</time>
      </trkpt>
      <trkpt lat="44.75001" lon="4.42171">
        <ele>762</ele>
        <time>2024-05-04T11:41:25Z</time>
      </trkpt>
      <trkpt lat="44.75003" lon="4.42184">
        <ele>763</ele>
        <time>2024-05-04T11:41:27Z</time>
      </trkpt>
      <trkpt lat="44.75" lon="4.42199">
        <ele>761</ele>
        <time>2024-05-04T11:41:29Z</time>
      </trkpt>
      <trkpt lat="44.75003" lon="4.42218">
        <ele>762</ele>
        <time>2024-05-04T11:41:33Z</time>
      </trkpt>
      <trkpt lat="44.75002" lon="4.42236">
        <ele>761</ele>
        <time>2024-05-04T11:41:36Z</time>
      </trkpt>
      <trkpt lat="44.75031" lon="4.42306">
        <ele>768</ele>
        <time>2024-05-04T11:41:49Z</time>
      </trkpt>
      <trkpt lat="44.75041" lon="4.42322">
        <ele>771</ele>
        <time>2024-05-04T11:41:53Z</time>
      </trkpt>
      <trkpt lat="44.75077" lon="4.42363">
        <ele>781</ele>
        <time>2024-05-04T11:42:03Z</time>
      </trkpt>
      <trkpt lat="44.75083" lon="4.42374">
        <ele>781</ele>
        <time>2024-05-04T11:42:06Z</time>
      </trkpt>
      <trkpt lat="44.75105" lon="4.42403">
        <ele>782</ele>
        <time>2024-05-04T11:42:13Z</time>
      </trkpt>
      <trkpt lat="44.7512" lon="4.42416">
        <ele>785</ele>
        <time>2024-05-04T11:42:17Z</time>
      </trkpt>
      <trkpt lat="44.7514" lon="4.42431">
        <ele>792</ele>
        <time>2024-05-04T11:42:22Z</time>
      </trkpt>
      <trkpt lat="44.75209" lon="4.42462">
        <ele>814</ele>
        <time>2024-05-04T11:42:39Z</time>
      </trkpt>
      <trkpt lat="44.75216" lon="4.42469">
        <ele>815</ele>
        <time>2024-05-04T11:42:41Z</time>
      </trkpt>
      <trkpt lat="44.75251" lon="4.42532">
        <ele>819</ele>
        <time>2024-05-04T11:42:54Z</time>
      </trkpt>
      <trkpt lat="44.75255" lon="4.42536">
        <ele>821</ele>
        <time>2024-05-04T11:42:55Z</time>
      </trkpt>
      <trkpt lat="44.7526" lon="4.42545">
        <ele>822</ele>
        <time>2024-05-04T11:42:57Z</time>
      </trkpt>
      <trkpt lat="44.75264" lon="4.42562">
        <ele>821</ele>
        <time>2024-05-04T11:43:00Z</time>
      </trkpt>
      <trkpt lat="44.75271" lon="4.42603">
        <ele>823</ele>
        <time>2024-05-04T11:43:07Z</time>
      </trkpt>
      <trkpt lat="44.75273" lon="4.42616">
        <ele>825</ele>
        <time>2024-05-04T11:43:09Z</time>
      </trkpt>
      <trkpt lat="44.75272" lon="4.42628">
        <ele>825</ele>
        <time>2024-05-04T11:43:11Z</time>
      </trkpt>
      <trkpt lat="44.75268" lon="4.42634">
        <ele>825</ele>
        <time>2024-05-04T11:43:13Z</time>
      </trkpt>
      <trkpt lat="44.75262" lon="4.42636">
        <ele>824</ele>
        <time>2024-05-04T11:43:14Z</time>
      </trkpt>
      <trkpt lat="44.75257" lon="4.42643">
        <ele>823</ele>
        <time>2024-05-04T11:43:16Z</time>
      </trkpt>
      <trkpt lat="44.75213" lon="4.42616">
        <ele>817</ele>
        <time>2024-05-04T11:43:27Z</time>
      </trkpt>
      <trkpt lat="44.75191" lon="4.42614">
        <ele>816</ele>
        <time>2024-05-04T11:43:32Z</time>
      </trkpt>
      <trkpt lat="44.75178" lon="4.42619">
        <ele>817</ele>
        <time>2024-05-04T11:43:35Z</time>
      </trkpt>
      <trkpt lat="44.75168" lon="4.42626">
        <ele>818</ele>
        <time>2024-05-04T11:43:38Z</time>
      </trkpt>
      <trkpt lat="44.75162" lon="4.42639">
        <ele>821</ele>
        <time>2024-05-04T11:43:41Z</time>
      </trkpt>
      <trkpt lat="44.75156" lon="4.42643">
        <ele>820</ele>
        <time>2024-05-04T11:43:42Z</time>
      </trkpt>
      <trkpt lat="44.75152" lon="4.4265">
        <ele>821</ele>
        <time>2024-05-04T11:43:44Z</time>
      </trkpt>
      <trkpt lat="44.75153" lon="4.42661">
        <ele>824</ele>
        <time>2024-05-04T11:43:46Z</time>
      </trkpt>
      <trkpt lat="44.7516" lon="4.4266">
        <ele>825</ele>
        <time>2024-05-04T11:43:47Z</time>
      </trkpt>
      <trkpt lat="44.75169" lon="4.42665">
        <ele>828</ele>
        <time>2024-05-04T11:43:49Z</time>
      </trkpt>
      <trkpt lat="44.75178" lon="4.42679">
        <ele>830</ele>
        <time>2024-05-04T11:43:53Z</time>
      </trkpt>
      <trkpt lat="44.75183" lon="4.42696">
        <ele>831</ele>
        <time>2024-05-04T11:43:56Z</time>
      </trkpt>
      <trkpt lat="44.75189" lon="4.42733">
        <ele>836</ele>
        <time>2024-05-04T11:44:02Z</time>
      </trkpt>
      <trkpt lat="44.75195" lon="4.4275">
        <ele>838</ele>
        <time>2024-05-04T11:44:05Z</time>
      </trkpt>
      <trkpt lat="44.75198" lon="4.42773">
        <ele>841</ele>
        <time>2024-05-04T11:44:09Z</time>
      </trkpt>
      <trkpt lat="44.75207" lon="4.42798">
        <ele>844</ele>
        <time>2024-05-04T11:44:14Z</time>
      </trkpt>
      <trkpt lat="44.75208" lon="4.42819">
        <ele>847</ele>
        <time>2024-05-04T11:44:17Z</time>
      </trkpt>
      <trkpt lat="44.75222" lon="4.42853">
        <ele>853</ele>
        <time>2024-05-04T11:44:24Z</time>
      </trkpt>
      <trkpt lat="44.75238" lon="4.42881">
        <ele>859</ele>
        <time>2024-05-04T11:44:30Z</time>
      </trkpt>
      <trkpt lat="44.75243" lon="4.42892">
        <ele>861</ele>
        <time>2024-05-04T11:44:32Z</time>
      </trkpt>
      <trkpt lat="44.75245" lon="4.42901">
        <ele>863</ele>
        <time>2024-05-04T11:44:33Z</time>
      </trkpt>
      <trkpt lat="44.75239" lon="4.42913">
        <ele>863</ele>
        <time>2024-05-04T11:44:36Z</time>
      </trkpt>
      <trkpt lat="44.75227" lon="4.42926">
        <ele>862</ele>
        <time>2024-05-04T11:44:39Z</time>
      </trkpt>
      <trkpt lat="44.75221" lon="4.42937">
        <ele>862</ele>
        <time>2024-05-04T11:44:42Z</time>
      </trkpt>
      <trkpt lat="44.75214" lon="4.42961">
        <ele>863</ele>
        <time>2024-05-04T11:44:46Z</time>
      </trkpt>
      <trkpt lat="44.7521" lon="4.42983">
        <ele>865</ele>
        <time>2024-05-04T11:44:50Z</time>
      </trkpt>
      <trkpt lat="44.7521" lon="4.43007">
        <ele>867</ele>
        <time>2024-05-04T11:44:54Z</time>
      </trkpt>
      <trkpt lat="44.75219" lon="4.43038">
        <ele>867</ele>
        <time>2024-05-04T11:44:59Z</time>
      </trkpt>
      <trkpt lat="44.75237" lon="4.43079">
        <ele>870</ele>
        <time>2024-05-04T11:45:07Z</time>
      </trkpt>
      <trkpt lat="44.75287" lon="4.4313">
        <ele>875</ele>
        <time>2024-05-04T11:45:22Z</time>
      </trkpt>
      <trkpt lat="44.75316" lon="4.43167">
        <ele>878</ele>
        <time>2024-05-04T11:45:31Z</time>
      </trkpt>
      <trkpt lat="44.75327" lon="4.43178">
        <ele>879</ele>
        <time>2024-05-04T11:45:34Z</time>
      </trkpt>
      <trkpt lat="44.75333" lon="4.43176">
        <ele>880</ele>
        <time>2024-05-04T11:45:35Z</time>
      </trkpt>
      <trkpt lat="44.75336" lon="4.43168">
        <ele>881</ele>
        <time>2024-05-04T11:45:37Z</time>
      </trkpt>
      <trkpt lat="44.75336" lon="4.43142">
        <ele>882</ele>
        <time>2024-05-04T11:45:41Z</time>
      </trkpt>
      <trkpt lat="44.7534" lon="4.43125">
        <ele>883</ele>
        <time>2024-05-04T11:45:44Z</time>
      </trkpt>
      <trkpt lat="44.75388" lon="4.43063">
        <ele>889</ele>
        <time>2024-05-04T11:45:59Z</time>
      </trkpt>
      <trkpt lat="44.75398" lon="4.43059">
        <ele>890</ele>
        <time>2024-05-04T11:46:02Z</time>
      </trkpt>
      <trkpt lat="44.75405" lon="4.43061">
        <ele>891</ele>
        <time>2024-05-04T11:46:03Z</time>
      </trkpt>
      <trkpt lat="44.75408" lon="4.43071">
        <ele>892</ele>
        <time>2024-05-04T11:46:05Z</time>
      </trkpt>
      <trkpt lat="44.75409" lon="4.43101">
        <ele>892</ele>
        <time>2024-05-04T11:46:10Z</time>
      </trkpt>
      <trkpt lat="44.75411" lon="4.43122">
        <ele>892</ele>
        <time>2024-05-04T11:46:14Z</time>
      </trkpt>
      <trkpt lat="44.7542" lon="4.43139">
        <ele>893</ele>
        <time>2024-05-04T11:46:17Z</time>
      </trkpt>
      <trkpt lat="44.75463" lon="4.43181">
        <ele>897</ele>
        <time>2024-05-04T11:46:29Z</time>
      </trkpt>
      <trkpt lat="44.75491" lon="4.4322">
        <ele>899</ele>
        <time>2024-05-04T11:46:39Z</time>
      </trkpt>
      <trkpt lat="44.75502" lon="4.43252">
        <ele>899</ele>
        <time>2024-05-04T11:46:44Z</time>
      </trkpt>
      <trkpt lat="44.75523" lon="4.43309">
        <ele>898</ele>
        <time>2024-05-04T11:46:55Z</time>
      </trkpt>
      <trkpt lat="44.75562" lon="4.4338">
        <ele>902</ele>
        <time>2024-05-04T11:47:10Z</time>
      </trkpt>
      <trkpt lat="44.75574" lon="4.43408">
        <ele>903</ele>
        <time>2024-05-04T11:47:15Z</time>
      </trkpt>
      <trkpt lat="44.75579" lon="4.43424">
        <ele>904</ele>
        <time>2024-05-04T11:47:18Z</time>
      </trkpt>
      <trkpt lat="44.75579" lon="4.43476">
        <ele>905</ele>
        <time>2024-05-04T11:47:27Z</time>
      </trkpt>
      <trkpt lat="44.75583" lon="4.43501">
        <ele>907</ele>
        <time>2024-05-04T11:47:31Z</time>
      </trkpt>
      <trkpt lat="44.75582" lon="4.43516">
        <ele>908</ele>
        <time>2024-05-04T11:47:34Z</time>
      </trkpt>
      <trkpt lat="44.75572" lon="4.43546">
        <ele>906</ele>
        <time>2024-05-04T11:47:39Z</time>
      </trkpt>
      <trkpt lat="44.75573" lon="4.4355">
        <ele>907</ele>
        <time>2024-05-04T11:47:40Z</time>
      </trkpt>
      <trkpt lat="44.75579" lon="4.43557">
        <ele>909</ele>
        <time>2024-05-04T11:47:42Z</time>
      </trkpt>
      <trkpt lat="44.75602" lon="4.435">
        <ele>910</ele>
        <time>2024-05-04T11:47:53Z</time>
      </trkpt>
      <trkpt lat="44.7561" lon="4.43452">
        <ele>910</ele>
        <time>2024-05-04T11:48:01Z</time>
      </trkpt>
      <trkpt lat="44.75626" lon="4.43411">
        <ele>911</ele>
        <time>2024-05-04T11:48:09Z</time>
      </trkpt>
      <trkpt lat="44.75623" lon="4.43393">
        <ele>911</ele>
        <time>2024-05-04T11:48:12Z</time>
      </trkpt>
      <trkpt lat="44.75623" lon="4.43263">
        <ele>913</ele>
        <time>2024-05-04T11:48:33Z</time>
      </trkpt>
      <trkpt lat="44.75628" lon="4.43179">
        <ele>917</ele>
        <time>2024-05-04T11:48:47Z</time>
      </trkpt>
      <trkpt lat="44.75631" lon="4.43053">
        <ele>922</ele>
        <time>2024-05-04T11:49:08Z</time>
      </trkpt>
      <trkpt lat="44.75635" lon="4.42985">
        <ele>925</ele>
        <time>2024-05-04T11:49:19Z</time>
      </trkpt>
      <trkpt lat="44.75655" lon="4.42935">
        <ele>930</ele>
        <time>2024-05-04T11:49:29Z</time>
      </trkpt>
      <trkpt lat="44.75655" lon="4.42879">
        <ele>931</ele>
        <time>2024-05-04T11:49:38Z</time>
      </trkpt>
      <trkpt lat="44.75662" lon="4.4284">
        <ele>934</ele>
        <time>2024-05-04T11:49:45Z</time>
      </trkpt>
      <trkpt lat="44.75659" lon="4.42787">
        <ele>933</ele>
        <time>2024-05-04T11:49:54Z</time>
      </trkpt>
      <trkpt lat="44.75701" lon="4.42667">
        <ele>951</ele>
        <time>2024-05-04T11:50:16Z</time>
      </trkpt>
      <trkpt lat="44.75694" lon="4.42645">
        <ele>950</ele>
        <time>2024-05-04T11:50:20Z</time>
      </trkpt>
      <trkpt lat="44.75665" lon="4.42611">
        <ele>944</ele>
        <time>2024-05-04T11:50:29Z</time>
      </trkpt>
      <trkpt lat="44.75663" lon="4.42594">
        <ele>945</ele>
        <time>2024-05-04T11:50:32Z</time>
      </trkpt>
      <trkpt lat="44.75689" lon="4.42522">
        <ele>955</ele>
        <time>2024-05-04T11:50:45Z</time>
      </trkpt>
      <trkpt lat="44.75686" lon="4.42417">
        <ele>960</ele>
        <time>2024-05-04T11:51:02Z</time>
      </trkpt>
      <trkpt lat="44.75692" lon="4.42381">
        <ele>962</ele>
        <time>2024-05-04T11:51:08Z</time>
      </trkpt>
      <trkpt lat="44.75709" lon="4.42346">
        <ele>963</ele>
        <time>2024-05-04T11:51:16Z</time>
      </trkpt>
      <trkpt lat="44.7572" lon="4.4234">
        <ele>963</ele>
        <time>2024-05-04T11:51:18Z</time>
      </trkpt>
      <trkpt lat="44.7577" lon="4.42345">
        <ele>968</ele>
        <time>2024-05-04T11:51:30Z</time>
      </trkpt>
      <trkpt lat="44.75785" lon="4.42342">
        <ele>970</ele>
        <time>2024-05-04T11:51:34Z</time>
      </trkpt>
      <trkpt lat="44.75795" lon="4.42304">
        <ele>969</ele>
        <time>2024-05-04T11:51:40Z</time>
      </trkpt>
      <trkpt lat="44.75804" lon="4.42258">
        <ele>968</ele>
        <time>2024-05-04T11:51:48Z</time>
      </trkpt>
      <trkpt lat="44.7583" lon="4.42192">
        <ele>964</ele>
        <time>2024-05-04T11:52:01Z</time>
      </trkpt>
      <trkpt lat="44.7584" lon="4.42171">
        <ele>963</ele>
        <time>2024-05-04T11:52:05Z</time>
      </trkpt>
      <trkpt lat="44.75881" lon="4.42147">
        <ele>969</ele>
        <time>2024-05-04T11:52:15Z</time>
      </trkpt>
      <trkpt lat="44.75944" lon="4.42121">
        <ele>974</ele>
        <time>2024-05-04T11:52:31Z</time>
      </trkpt>
      <trkpt lat="44.76002" lon="4.42079">
        <ele>977</ele>
        <time>2024-05-04T11:52:46Z</time>
      </trkpt>
      <trkpt lat="44.76052" lon="4.42038">
        <ele>980</ele>
        <time>2024-05-04T11:52:59Z</time>
      </trkpt>
      <trkpt lat="44.76101" lon="4.42014">
        <ele>985</ele>
        <time>2024-05-04T11:53:11Z</time>
      </trkpt>
      <trkpt lat="44.76117" lon="4.41997">
        <ele>985</ele>
        <time>2024-05-04T11:53:16Z</time>
      </trkpt>
      <trkpt lat="44.76127" lon="4.41964">
        <ele>985</ele>
        <time>2024-05-04T11:53:22Z</time>
      </trkpt>
      <trkpt lat="44.76132" lon="4.41959">
        <ele>985</ele>
        <time>2024-05-04T11:53:23Z</time>
      </trkpt>
      <trkpt lat="44.76161" lon="4.41847">
        <ele>991</ele>
        <time>2024-05-04T11:53:43Z</time>
      </trkpt>
      <trkpt lat="44.76183" lon="4.41788">
        <ele>995</ele>
        <time>2024-05-04T11:53:54Z</time>
      </trkpt>
      <trkpt lat="44.76225" lon="4.41732">
        <ele>999</ele>
        <time>2024-05-04T11:54:08Z</time>
      </trkpt>
      <trkpt lat="44.76238" lon="4.41709">
        <ele>1001</ele>
        <time>2024-05-04T11:54:13Z</time>
      </trkpt>
      <trkpt lat="44.76251" lon="4.41663">
        <ele>1005</ele>
        <time>2024-05-04T11:54:21Z</time>
      </trkpt>
      <trkpt lat="44.76267" lon="4.41579">
        <ele>1010</ele>
        <time>2024-05-04T11:54:35Z</time>
      </trkpt>
      <trkpt lat="44.76306" lon="4.41507">
        <ele>1016</ele>
        <time>2024-05-04T11:54:50Z</time>
      </trkpt>
      <trkpt lat="44.76327" lon="4.41459">
        <ele>1024</ele>
        <time>2024-05-04T11:55:00Z</time>
      </trkpt>
      <trkpt lat="44.7633" lon="4.41421">
        <ele>1027</ele>
        <time>2024-05-04T11:55:06Z</time>
      </trkpt>
      <trkpt lat="44.76322" lon="4.41368">
        <ele>1028</ele>
        <time>2024-05-04T11:55:15Z</time>
      </trkpt>
      <trkpt lat="44.76326" lon="4.41339">
        <ele>1031</ele>
        <time>2024-05-04T11:55:20Z</time>
      </trkpt>
      <trkpt lat="44.76277" lon="4.41227">
        <ele>1032</ele>
        <time>2024-05-04T11:55:42Z</time>
      </trkpt>
      <trkpt lat="44.76246" lon="4.4111">
        <ele>1039</ele>
        <time>2024-05-04T11:56:02Z</time>
      </trkpt>
      <trkpt lat="44.76247" lon="4.41062">
        <ele>1040</ele>
        <time>2024-05-04T11:56:10Z</time>
      </trkpt>
      <trkpt lat="44.76259" lon="4.41018">
        <ele>1040</ele>
        <time>2024-05-04T11:56:18Z</time>
      </trkpt>
      <trkpt lat="44.76284" lon="4.40983">
        <ele>1041</ele>
        <time>2024-05-04T11:56:26Z</time>
      </trkpt>
      <trkpt lat="44.76374" lon="4.40961">
        <ele>1044</ele>
        <time>2024-05-04T11:56:48Z</time>
      </trkpt>
      <trkpt lat="44.76402" lon="4.40969">
        <ele>1047</ele>
        <time>2024-05-04T11:56:54Z</time>
      </trkpt>
      <trkpt lat="44.7642" lon="4.40987">
        <ele>1053</ele>
        <time>2024-05-04T11:57:00Z</time>
      </trkpt>
      <trkpt lat="44.76458" lon="4.41062">
        <ele>1064</ele>
        <time>2024-05-04T11:57:15Z</time>
      </trkpt>
      <trkpt lat="44.76533" lon="4.41123">
        <ele>1068</ele>
        <time>2024-05-04T11:57:35Z</time>
      </trkpt>
      <trkpt lat="44.76559" lon="4.41121">
        <ele>1070</ele>
        <time>2024-05-04T11:57:41Z</time>
      </trkpt>
      <trkpt lat="44.76582" lon="4.41112">
        <ele>1073</ele>
        <time>2024-05-04T11:57:47Z</time>
      </trkpt>
      <trkpt lat="44.76594" lon="4.41082">
        <ele>1075</ele>
        <time>2024-05-04T11:57:52Z</time>
      </trkpt>
      <trkpt lat="44.76639" lon="4.41031">
        <ele>1079</ele>
        <time>2024-05-04T11:58:06Z</time>
      </trkpt>
      <trkpt lat="44.76677" lon="4.40994">
        <ele>1087</ele>
        <time>2024-05-04T11:58:17Z</time>
      </trkpt>
      <trkpt lat="44.76727" lon="4.40961">
        <ele>1098</ele>
        <time>2024-05-04T11:58:30Z</time>
      </trkpt>
      <trkpt lat="44.7674" lon="4.40922">
        <ele>1100</ele>
        <time>2024-05-04T11:58:37Z</time>
      </trkpt>
      <trkpt lat="44.76747" lon="4.40864">
        <ele>1104</ele>
        <time>2024-05-04T11:58:47Z</time>
      </trkpt>
      <trkpt lat="44.76742" lon="4.408">
        <ele>1104</ele>
        <time>2024-05-04T11:58:57Z</time>
      </trkpt>
      <trkpt lat="44.76741" lon="4.40788">
        <ele>1104</ele>
        <time>2024-05-04T11:58:59Z</time>
      </trkpt>
      <trkpt lat="44.76745" lon="4.40738">
        <ele>1107</ele>
        <time>2024-05-04T11:59:08Z</time>
      </trkpt>
      <trkpt lat="44.7676" lon="4.4071">
        <ele>1111</ele>
        <time>2024-05-04T11:59:13Z</time>
      </trkpt>
      <trkpt lat="44.76771" lon="4.40659">
        <ele>1114</ele>
        <time>2024-05-04T11:59:22Z</time>
      </trkpt>
      <trkpt lat="44.76771" lon="4.40585">
        <ele>1119</ele>
        <time>2024-05-04T11:59:34Z</time>
      </trkpt>
      <trkpt lat="44.76769" lon="4.40577">
        <ele>1119</ele>
        <time>2024-05-04T11:59:36Z</time>
      </trkpt>
      <trkpt lat="44.76757" lon="4.40505">
        <ele>1119</ele>
        <time>2024-05-04T11:59:48Z</time>
      </trkpt>
      <trkpt lat="44.76782" lon="4.40465">
        <ele>1120</ele>
        <time>2024-05-04T11:59:57Z</time>
      </trkpt>
      <trkpt lat="44.76829" lon="4.40414">
        <ele>1126</ele>
        <time>2024-05-04T12:00:11Z</time>
      </trkpt>
      <trkpt lat="44.76869" lon="4.40358">
        <ele>1132</ele>
        <time>2024-05-04T12:00:24Z</time>
      </trkpt>
      <trkpt lat="44.76922" lon="4.40262">
        <ele>1139</ele>
        <time>2024-05-04T12:00:44Z</time>
      </trkpt>
      <trkpt lat="44.76963" lon="4.40205">
        <ele>1140</ele>
        <time>2024-05-04T12:00:58Z</time>
      </trkpt>
      <trkpt lat="44.76984" lon="4.40191">
        <ele>1143</ele>
        <time>2024-05-04T12:01:03Z</time>
      </trkpt>
      <trkpt lat="44.77011" lon="4.40162">
        <ele>1144</ele>
        <time>2024-05-04T12:01:11Z</time>
      </trkpt>
      <trkpt lat="44.77074" lon="4.40108">
        <ele>1147</ele>
        <time>2024-05-04T12:01:28Z</time>
      </trkpt>
      <trkpt lat="44.77109" lon="4.40089">
        <ele>1151</ele>
        <time>2024-05-04T12:01:37Z</time>
      </trkpt>
      <trkpt lat="44.77158" lon="4.40074">
        <ele>1159</ele>
        <time>2024-05-04T12:01:49Z</time>
      </trkpt>
      <trkpt lat="44.77229" lon="4.39988">
        <ele>1165</ele>
        <time>2024-05-04T12:02:11Z</time>
      </trkpt>
      <trkpt lat="44.7728" lon="4.39923">
        <ele>1172</ele>
        <time>2024-05-04T12:02:27Z</time>
      </trkpt>
      <trkpt lat="44.77332" lon="4.39812">
        <ele>1178</ele>
        <time>2024-05-04T12:02:49Z</time>
      </trkpt>
      <trkpt lat="44.77408" lon="4.39571">
        <ele>1180</ele>
        <time>2024-05-04T12:03:32Z</time>
      </trkpt>
      <trkpt lat="44.77405" lon="4.39535">
        <ele>1181</ele>
        <time>2024-05-04T12:03:38Z</time>
      </trkpt>
      <trkpt lat="44.77374" lon="4.39462">
        <ele>1178</ele>
        <time>2024-05-04T12:03:52Z</time>
      </trkpt>
      <trkpt lat="44.77339" lon="4.39409">
        <ele>1177</ele>
        <time>2024-05-04T12:04:04Z</time>
      </trkpt>
      <trkpt lat="44.77327" lon="4.39376">
        <ele>1182</ele>
        <time>2024-05-04T12:04:11Z</time>
      </trkpt>
      <trkpt lat="44.77292" lon="4.39313">
        <ele>1192</ele>
        <time>2024-05-04T12:04:24Z</time>
      </trkpt>
      <trkpt lat="44.77263" lon="4.39293">
        <ele>1191</ele>
        <time>2024-05-04T12:04:31Z</time>
      </trkpt>
      <trkpt lat="44.77232" lon="4.39303">
        <ele>1183</ele>
        <time>2024-05-04T12:04:39Z</time>
      </trkpt>
      <trkpt lat="44.77216" lon="4.39303">
        <ele>1180</ele>
        <time>2024-05-04T12:04:43Z</time>
      </trkpt>
      <trkpt lat="44.77192" lon="4.39285">
        <ele>1181</ele>
        <time>2024-05-04T12:04:49Z</time>
      </trkpt>
      <trkpt lat="44.77137" lon="4.39205">
        <ele>1192</ele>
        <time>2024-05-04T12:05:07Z</time>
      </trkpt>
      <trkpt lat="44.77115" lon="4.39179">
        <ele>1195</ele>
        <time>2024-05-04T12:05:14Z</time>
      </trkpt>
      <trkpt lat="44.77067" lon="4.39203">
        <ele>1180</ele>
        <time>2024-05-04T12:05:26Z</time>
      </trkpt>
      <trkpt lat="44.77054" lon="4.39197">
        <ele>1178</ele>
        <time>2024-05-04T12:05:29Z</time>
      </trkpt>
      <trkpt lat="44.77047" lon="4.3916">
        <ele>1182</ele>
        <time>2024-05-04T12:05:36Z</time>
      </trkpt>
      <trkpt lat="44.77065" lon="4.39087">
        <ele>1189</ele>
        <time>2024-05-04T12:05:48Z</time>
      </trkpt>
      <trkpt lat="44.77073" lon="4.39037">
        <ele>1194</ele>
        <time>2024-05-04T12:05:57Z</time>
      </trkpt>
      <trkpt lat="44.77076" lon="4.39006">
        <ele>1196</ele>
        <time>2024-05-04T12:06:02Z</time>
      </trkpt>
      <trkpt lat="44.77052" lon="4.38903">
        <ele>1194</ele>
        <time>2024-05-04T12:06:20Z</time>
      </trkpt>
      <trkpt lat="44.77025" lon="4.38849">
        <ele>1189</ele>
        <time>2024-05-04T12:06:31Z</time>
      </trkpt>
      <trkpt lat="44.77014" lon="4.38781">
        <ele>1192</ele>
        <time>2024-05-04T12:06:43Z</time>
      </trkpt>
      <trkpt lat="44.77012" lon="4.38722">
        <ele>1198</ele>
        <time>2024-05-04T12:06:52Z</time>
      </trkpt>
      <trkpt lat="44.76994" lon="4.38683">
        <ele>1196</ele>
        <time>2024-05-04T12:07:00Z</time>
      </trkpt>
      <trkpt lat="44.7698" lon="4.38628">
        <ele>1196</ele>
        <time>2024-05-04T12:07:10Z</time>
      </trkpt>
      <trkpt lat="44.76968" lon="4.38606">
        <ele>1194</ele>
        <time>2024-05-04T12:07:14Z</time>
      </trkpt>
      <trkpt lat="44.76955" lon="4.38596">
        <ele>1193</ele>
        <time>2024-05-04T12:07:18Z</time>
      </trkpt>
      <trkpt lat="44.76968" lon="4.38606">
        <ele>1194</ele>
        <time>2024-05-04T12:07:21Z</time>
      </trkpt>
      <trkpt lat="44.7698" lon="4.38628">
        <ele>1196</ele>
        <time>2024-05-04T12:07:26Z</time>
      </trkpt>
      <trkpt lat="44.76973" lon="4.38592">
        <ele>1196</ele>
        <time>2024-05-04T12:07:32Z</time>
      </trkpt>
      <trkpt lat="44.7698" lon="4.38561">
        <ele>1198</ele>
        <time>2024-05-04T12:07:37Z</time>
      </trkpt>
      <trkpt lat="44.77011" lon="4.38532">
        <ele>1199</ele>
        <time>2024-05-04T12:07:46Z</time>
      </trkpt>
      <trkpt lat="44.7705" lon="4.38524">
        <ele>1200</ele>
        <time>2024-05-04T12:07:55Z</time>
      </trkpt>
      <trkpt lat="44.77107" lon="4.38518">
        <ele>1203</ele>
        <time>2024-05-04T12:08:09Z</time>
      </trkpt>
      <trkpt lat="44.7713" lon="4.38523">
        <ele>1205</ele>
        <time>2024-05-04T12:08:14Z</time>
      </trkpt>
      <trkpt lat="44.77159" lon="4.38534">
        <ele>1210</ele>
        <time>2024-05-04T12:08:21Z</time>
      </trkpt>
      <trkpt lat="44.77224" lon="4.38531">
        <ele>1212</ele>
        <time>2024-05-04T12:08:36Z</time>
      </trkpt>
      <trkpt lat="44.77262" lon="4.38517">
        <ele>1211</ele>
        <time>2024-05-04T12:08:45Z</time>
      </trkpt>
      <trkpt lat="44.77295" lon="4.38513">
        <ele>1213</ele>
        <time>2024-05-04T12:08:53Z</time>
      </trkpt>
      <trkpt lat="44.77343" lon="4.38487">
        <ele>1211</ele>
        <time>2024-05-04T12:09:05Z</time>
      </trkpt>
      <trkpt lat="44.77379" lon="4.38495">
        <ele>1221</ele>
        <time>2024-05-04T12:09:14Z</time>
      </trkpt>
      <trkpt lat="44.77401" lon="4.38491">
        <ele>1224</ele>
        <time>2024-05-04T12:09:19Z</time>
      </trkpt>
      <trkpt lat="44.77437" lon="4.3849">
        <ele>1230</ele>
        <time>2024-05-04T12:09:27Z</time>
      </trkpt>
      <trkpt lat="44.77487" lon="4.38471">
        <ele>1234</ele>
        <time>2024-05-04T12:09:39Z</time>
      </trkpt>
      <trkpt lat="44.77539" lon="4.38467">
        <ele>1240</ele>
        <time>2024-05-04T12:09:52Z</time>
      </trkpt>
      <trkpt lat="44.77605" lon="4.38457">
        <ele>1247</ele>
        <time>2024-05-04T12:10:07Z</time>
      </trkpt>
      <trkpt lat="44.77639" lon="4.38449">
        <ele>1250</ele>
        <time>2024-05-04T12:10:15Z</time>
      </trkpt>
      <trkpt lat="44.7767" lon="4.38445">
        <ele>1254</ele>
        <time>2024-05-04T12:10:22Z</time>
      </trkpt>
      <trkpt lat="44.77749" lon="4.38372">
        <ele>1255</ele>
        <time>2024-05-04T12:10:44Z</time>
      </trkpt>
      <trkpt lat="44.77768" lon="4.38362">
        <ele>1259</ele>
        <time>2024-05-04T12:10:49Z</time>
      </trkpt>
      <trkpt lat="44.77788" lon="4.38341">
        <ele>1260</ele>
        <time>2024-05-04T12:10:55Z</time>
      </trkpt>
      <trkpt lat="44.77819" lon="4.38297">
        <ele>1262</ele>
        <time>2024-05-04T12:11:05Z</time>
      </trkpt>
      <trkpt lat="44.7784" lon="4.38277">
        <ele>1264</ele>
        <time>2024-05-04T12:11:11Z</time>
      </trkpt>
      <trkpt lat="44.77866" lon="4.38263">
        <ele>1265</ele>
        <time>2024-05-04T12:11:18Z</time>
      </trkpt>
      <trkpt lat="44.77884" lon="4.38245">
        <ele>1265</ele>
        <time>2024-05-04T12:11:23Z</time>
      </trkpt>
      <trkpt lat="44.77954" lon="4.38193">
        <ele>1270</ele>
        <time>2024-05-04T12:11:41Z</time>
      </trkpt>
      <trkpt lat="44.77965" lon="4.38181">
        <ele>1270</ele>
        <time>2024-05-04T12:11:45Z</time>
      </trkpt>
      <trkpt lat="44.77987" lon="4.38151">
        <ele>1271</ele>
        <time>2024-05-04T12:11:52Z</time>
      </trkpt>
      <trkpt lat="44.78024" lon="4.38106">
        <ele>1273</ele>
        <time>2024-05-04T12:12:03Z</time>
      </trkpt>
      <trkpt lat="44.78044" lon="4.38075">
        <ele>1275</ele>
        <time>2024-05-04T12:12:10Z</time>
      </trkpt>
      <trkpt lat="44.7808" lon="4.38">
        <ele>1279</ele>
        <time>2024-05-04T12:12:25Z</time>
      </trkpt>
      <trkpt lat="44.78119" lon="4.37913">
        <ele>1283</ele>
        <time>2024-05-04T12:12:42Z</time>
      </trkpt>
      <trkpt lat="44.78148" lon="4.37838">
        <ele>1287</ele>
        <time>2024-05-04T12:12:56Z</time>
      </trkpt>
      <trkpt lat="44.78149" lon="4.37826">
        <ele>1287</ele>
        <time>2024-05-04T12:12:58Z</time>
      </trkpt>
      <trkpt lat="44.78157" lon="4.37843">
        <ele>1287</ele>
        <time>2024-05-04T12:13:02Z</time>
      </trkpt>
      <trkpt lat="44.7816" lon="4.37854">
        <ele>1286</ele>
        <time>2024-05-04T12:13:04Z</time>
      </trkpt>
      <trkpt lat="44.78165" lon="4.37966">
        <ele>1283</ele>
        <time>2024-05-04T12:13:22Z</time>
      </trkpt>
      <trkpt lat="44.78164" lon="4.38003">
        <ele>1282</ele>
        <time>2024-05-04T12:13:28Z</time>
      </trkpt>
      <trkpt lat="44.78169" lon="4.38014">
        <ele>1282</ele>
        <time>2024-05-04T12:13:31Z</time>
      </trkpt>
      <trkpt lat="44.78178" lon="4.38027">
        <ele>1280</ele>
        <time>2024-05-04T12:13:34Z</time>
      </trkpt>
      <trkpt lat="44.7818" lon="4.38061">
        <ele>1280</ele>
        <time>2024-05-04T12:13:39Z</time>
      </trkpt>
      <trkpt lat="44.78177" lon="4.38082">
        <ele>1281</ele>
        <time>2024-05-04T12:13:43Z</time>
      </trkpt>
      <trkpt lat="44.7817" lon="4.38101">
        <ele>1283</ele>
        <time>2024-05-04T12:13:46Z</time>
      </trkpt>
      <trkpt lat="44.78142" lon="4.38138">
        <ele>1284</ele>
        <time>2024-05-04T12:13:55Z</time>
      </trkpt>
      <trkpt lat="44.78141" lon="4.38143">
        <ele>1285</ele>
        <time>2024-05-04T12:13:56Z</time>
      </trkpt>
      <trkpt lat="44.78143" lon="4.38184">
        <ele>1286</ele>
        <time>2024-05-04T12:14:03Z</time>
      </trkpt>
      <trkpt lat="44.7815" lon="4.38201">
        <ele>1287</ele>
        <time>2024-05-04T12:14:06Z</time>
      </trkpt>
      <trkpt lat="44.78152" lon="4.38213">
        <ele>1288</ele>
        <time>2024-05-04T12:14:08Z</time>
      </trkpt>
      <trkpt lat="44.78147" lon="4.38247">
        <ele>1290</ele>
        <time>2024-05-04T12:14:14Z</time>
      </trkpt>
      <trkpt lat="44.78137" lon="4.38269">
        <ele>1291</ele>
        <time>2024-05-04T12:14:18Z</time>
      </trkpt>
      <trkpt lat="44.78127" lon="4.38311">
        <ele>1293</ele>
        <time>2024-05-04T12:14:26Z</time>
      </trkpt>
      <trkpt lat="44.78123" lon="4.38318">
        <ele>1293</ele>
        <time>2024-05-04T12:14:27Z</time>
      </trkpt>
      <trkpt lat="44.78121" lon="4.38334">
        <ele>1294</ele>
        <time>2024-05-04T12:14:30Z</time>
      </trkpt>
      <trkpt lat="44.78111" lon="4.38356">
        <ele>1296</ele>
        <time>2024-05-04T12:14:34Z</time>
      </trkpt>
      <trkpt lat="44.78103" lon="4.38382">
        <ele>1298</ele>
        <time>2024-05-04T12:14:39Z</time>
      </trkpt>
      <trkpt lat="44.78096" lon="4.38397">
        <ele>1299</ele>
        <time>2024-05-04T12:14:42Z</time>
      </trkpt>
      <trkpt lat="44.78071" lon="4.38491">
        <ele>1307</ele>
        <time>2024-05-04T12:14:59Z</time>
      </trkpt>
      <trkpt lat="44.78069" lon="4.38504">
        <ele>1308</ele>
        <time>2024-05-04T12:15:01Z</time>
      </trkpt>
      <trkpt lat="44.78062" lon="4.38515">
        <ele>1309</ele>
        <time>2024-05-04T12:15:03Z</time>
      </trkpt>
      <trkpt lat="44.78054" lon="4.38524">
        <ele>1311</ele>
        <time>2024-05-04T12:15:06Z</time>
      </trkpt>
      <trkpt lat="44.7805" lon="4.38534">
        <ele>1312</ele>
        <time>2024-05-04T12:15:07Z</time>
      </trkpt>
      <trkpt lat="44.78042" lon="4.38584">
        <ele>1315</ele>
        <time>2024-05-04T12:15:16Z</time>
      </trkpt>
      <trkpt lat="44.78021" lon="4.38621">
        <ele>1317</ele>
        <time>2024-05-04T12:15:24Z</time>
      </trkpt>
      <trkpt lat="44.78014" lon="4.38627">
        <ele>1318</ele>
        <time>2024-05-04T12:15:26Z</time>
      </trkpt>
      <trkpt lat="44.78009" lon="4.38642">
        <ele>1318</ele>
        <time>2024-05-04T12:15:28Z</time>
      </trkpt>
      <trkpt lat="44.78001" lon="4.38655">
        <ele>1319</ele>
        <time>2024-05-04T12:15:31Z</time>
      </trkpt>
      <trkpt lat="44.77996" lon="4.38656">
        <ele>1319</ele>
        <time>2024-05-04T12:15:32Z</time>
      </trkpt>
      <trkpt lat="44.77988" lon="4.38654">
        <ele>1321</ele>
        <time>2024-05-04T12:15:34Z</time>
      </trkpt>
      <trkpt lat="44.77976" lon="4.38666">
        <ele>1322</ele>
        <time>2024-05-04T12:15:38Z</time>
      </trkpt>
      <trkpt lat="44.77971" lon="4.38676">
        <ele>1322</ele>
        <time>2024-05-04T12:15:40Z</time>
      </trkpt>
      <trkpt lat="44.77967" lon="4.38692">
        <ele>1320</ele>
        <time>2024-05-04T12:15:43Z</time>
      </trkpt>
      <trkpt lat="44.77964" lon="4.38698">
        <ele>1320</ele>
        <time>2024-05-04T12:15:44Z</time>
      </trkpt>
      <trkpt lat="44.77967" lon="4.38692">
        <ele>1320</ele>
        <time>2024-05-04T12:15:45Z</time>
      </trkpt>
      <trkpt lat="44.77971" lon="4.38676">
        <ele>1322</ele>
        <time>2024-05-04T12:15:48Z</time>
      </trkpt>
      <trkpt lat="44.77976" lon="4.38666">
        <ele>1322</ele>
        <time>2024-05-04T12:15:50Z</time>
      </trkpt>
      <trkpt lat="44.77988" lon="4.38654">
        <ele>1321</ele>
        <time>2024-05-04T12:15:53Z</time>
      </trkpt>
      <trkpt lat="44.77996" lon="4.38656">
        <ele>1319</ele>
        <time>2024-05-04T12:15:55Z</time>
      </trkpt>
      <trkpt lat="44.78001" lon="4.38655">
        <ele>1319</ele>
        <time>2024-05-04T12:15:56Z</time>
      </trkpt>
      <trkpt lat="44.78009" lon="4.38642">
        <ele>1318</ele>
        <time>2024-05-04T12:15:59Z</time>
      </trkpt>
      <trkpt lat="44.78014" lon="4.38627">
        <ele>1318</ele>
        <time>2024-05-04T12:16:02Z</time>
      </trkpt>
      <trkpt lat="44.78021" lon="4.38621">
        <ele>1317</ele>
        <time>2024-05-04T12:16:04Z</time>
      </trkpt>
      <trkpt lat="44.78042" lon="4.38584">
        <ele>1315</ele>
        <time>2024-05-04T12:16:12Z</time>
      </trkpt>
      <trkpt lat="44.7805" lon="4.38534">
        <ele>1312</ele>
        <time>2024-05-04T12:16:20Z</time>
      </trkpt>
      <trkpt lat="44.78054" lon="4.38524">
        <ele>1311</ele>
        <time>2024-05-04T12:16:22Z</time>
      </trkpt>
      <trkpt lat="44.78062" lon="4.38515">
        <ele>1309</ele>
        <time>2024-05-04T12:16:25Z</time>
      </trkpt>
      <trkpt lat="44.78069" lon="4.38504">
        <ele>1308</ele>
        <time>2024-05-04T12:16:27Z</time>
      </trkpt>
      <trkpt lat="44.78071" lon="4.38491">
        <ele>1307</ele>
        <time>2024-05-04T12:16:29Z</time>
      </trkpt>
      <trkpt lat="44.78096" lon="4.38397">
        <ele>1299</ele>
        <time>2024-05-04T12:16:46Z</time>
      </trkpt>
      <trkpt lat="44.78103" lon="4.38382">
        <ele>1298</ele>
        <time>2024-05-04T12:16:49Z</time>
      </trkpt>
      <trkpt lat="44.78111" lon="4.38356">
        <ele>1296</ele>
        <time>2024-05-04T12:16:54Z</time>
      </trkpt>
      <trkpt lat="44.78121" lon="4.38334">
        <ele>1294</ele>
        <time>2024-05-04T12:16:58Z</time>
      </trkpt>
      <trkpt lat="44.78123" lon="4.38318">
        <ele>1293</ele>
        <time>2024-05-04T12:17:01Z</time>
      </trkpt>
      <trkpt lat="44.78127" lon="4.38311">
        <ele>1293</ele>
        <time>2024-05-04T12:17:02Z</time>
      </trkpt>
      <trkpt lat="44.78137" lon="4.38269">
        <ele>1291</ele>
        <time>2024-05-04T12:17:09Z</time>
      </trkpt>
      <trkpt lat="44.78147" lon="4.38247">
        <ele>1290</ele>
        <time>2024-05-04T12:17:14Z</time>
      </trkpt>
      <trkpt lat="44.78152" lon="4.38213">
        <ele>1288</ele>
        <time>2024-05-04T12:17:20Z</time>
      </trkpt>
      <trkpt lat="44.7815" lon="4.38201">
        <ele>1287</ele>
        <time>2024-05-04T12:17:22Z</time>
      </trkpt>
      <trkpt lat="44.78143" lon="4.38184">
        <ele>1286</ele>
        <time>2024-05-04T12:17:25Z</time>
      </trkpt>
      <trkpt lat="44.78141" lon="4.38143">
        <ele>1285</ele>
        <time>2024-05-04T12:17:32Z</time>
      </trkpt>
      <trkpt lat="44.78142" lon="4.38138">
        <ele>1284</ele>
        <time>2024-05-04T12:17:32Z</time>
      </trkpt>
      <trkpt lat="44.7817" lon="4.38101">
        <ele>1283</ele>
        <time>2024-05-04T12:17:41Z</time>
      </trkpt>
      <trkpt lat="44.78177" lon="4.38082">
        <ele>1281</ele>
        <time>2024-05-04T12:17:45Z</time>
      </trkpt>
      <trkpt lat="44.7818" lon="4.38061">
        <ele>1280</ele>
        <time>2024-05-04T12:17:49Z</time>
      </trkpt>
      <trkpt lat="44.78178" lon="4.38027">
        <ele>1280</ele>
        <time>2024-05-04T12:17:54Z</time>
      </trkpt>
      <trkpt lat="44.78169" lon="4.38014">
        <ele>1282</ele>
        <time>2024-05-04T12:17:57Z</time>
      </trkpt>
      <trkpt lat="44.78164" lon="4.38003">
        <ele>1282</ele>
        <time>2024-05-04T12:17:59Z</time>
      </trkpt>
      <trkpt lat="44.78165" lon="4.37966">
        <ele>1283</ele>
        <time>2024-05-04T12:18:06Z</time>
      </trkpt>
      <trkpt lat="44.7816" lon="4.37854">
        <ele>1286</ele>
        <time>2024-05-04T12:18:24Z</time>
      </trkpt>
      <trkpt lat="44.78153" lon="4.37833">
        <ele>1287</ele>
        <time>2024-05-04T12:18:28Z</time>
      </trkpt>
      <trkpt lat="44.78149" lon="4.37826">
        <ele>1287</ele>
        <time>2024-05-04T12:18:29Z</time>
      </trkpt>
      <trkpt lat="44.78166" lon="4.37766">
        <ele>1290</ele>
        <time>2024-05-04T12:18:40Z</time>
      </trkpt>
      <trkpt lat="44.78188" lon="4.37701">
        <ele>1289</ele>
        <time>2024-05-04T12:18:52Z</time>
      </trkpt>
      <trkpt lat="44.78198" lon="4.3766">
        <ele>1289</ele>
        <time>2024-05-04T12:18:59Z</time>
      </trkpt>
      <trkpt lat="44.78203" lon="4.37647">
        <ele>1289</ele>
        <time>2024-05-04T12:19:02Z</time>
      </trkpt>
      <trkpt lat="44.78224" lon="4.37612">
        <ele>1288</ele>
        <time>2024-05-04T12:19:09Z</time>
      </trkpt>
      <trkpt lat="44.78245" lon="4.37601">
        <ele>1284</ele>
        <time>2024-05-04T12:19:15Z</time>
      </trkpt>
      <trkpt lat="44.78254" lon="4.37593">
        <ele>1283</ele>
        <time>2024-05-04T12:19:17Z</time>
      </trkpt>
      <trkpt lat="44.78262" lon="4.37578">
        <ele>1281</ele>
        <time>2024-05-04T12:19:20Z</time>
      </trkpt>
      <trkpt lat="44.78263" lon="4.3757">
        <ele>1281</ele>
        <time>2024-05-04T12:19:22Z</time>
      </trkpt>
      <trkpt lat="44.78255" lon="4.37538">
        <ele>1283</ele>
        <time>2024-05-04T12:19:27Z</time>
      </trkpt>
      <trkpt lat="44.78243" lon="4.37465">
        <ele>1282</ele>
        <time>2024-05-04T12:19:40Z</time>
      </trkpt>
      <trkpt lat="44.78228" lon="4.37416">
        <ele>1281</ele>
        <time>2024-05-04T12:19:48Z</time>
      </trkpt>
      <trkpt lat="44.7823" lon="4.37392">
        <ele>1280</ele>
        <time>2024-05-04T12:19:52Z</time>
      </trkpt>
      <trkpt lat="44.78226" lon="4.37357">
        <ele>1280</ele>
        <time>2024-05-04T12:19:58Z</time>
      </trkpt>
      <trkpt lat="44.78226" lon="4.3733">
        <ele>1280</ele>
        <time>2024-05-04T12:20:03Z</time>
      </trkpt>
      <trkpt lat="44.7823" lon="4.37299">
        <ele>1279</ele>
        <time>2024-05-04T12:20:08Z</time>
      </trkpt>
      <trkpt lat="44.7824" lon="4.37259">
        <ele>1279</ele>
        <time>2024-05-04T12:20:15Z</time>
      </trkpt>
      <trkpt lat="44.78253" lon="4.37232">
        <ele>1277</ele>
        <time>2024-05-04T12:20:20Z</time>
      </trkpt>
      <trkpt lat="44.78277" lon="4.37169">
        <ele>1273</ele>
        <time>2024-05-04T12:20:32Z</time>
      </trkpt>
      <trkpt lat="44.78293" lon="4.37138">
        <ele>1271</ele>
        <time>2024-05-04T12:20:39Z</time>
      </trkpt>
      <trkpt lat="44.78305" lon="4.37126">
        <ele>1269</ele>
        <time>2024-05-04T12:20:42Z</time>
      </trkpt>
      <trkpt lat="44.78318" lon="4.37102">
        <ele>1270</ele>
        <time>2024-05-04T12:20:47Z</time>
      </trkpt>
      <trkpt lat="44.78332" lon="4.3707">
        <ele>1273</ele>
        <time>2024-05-04T12:20:53Z</time>
      </trkpt>
      <trkpt lat="44.78341" lon="4.37059">
        <ele>1274</ele>
        <time>2024-05-04T12:20:56Z</time>
      </trkpt>
      <trkpt lat="44.78386" lon="4.37031">
        <ele>1270</ele>
        <time>2024-05-04T12:21:08Z</time>
      </trkpt>
      <trkpt lat="44.78451" lon="4.37004">
        <ele>1261</ele>
        <time>2024-05-04T12:21:23Z</time>
      </trkpt>
      <trkpt lat="44.78472" lon="4.36982">
        <ele>1259</ele>
        <time>2024-05-04T12:21:30Z</time>
      </trkpt>
      <trkpt lat="44.78492" lon="4.36948">
        <ele>1259</ele>
        <time>2024-05-04T12:21:37Z</time>
      </trkpt>
      <trkpt lat="44.78515" lon="4.36892">
        <ele>1258</ele>
        <time>2024-05-04T12:21:48Z</time>
      </trkpt>
      <trkpt lat="44.78526" lon="4.36854">
        <ele>1258</ele>
        <time>2024-05-04T12:21:54Z</time>
      </trkpt>
      <trkpt lat="44.7855" lon="4.36755">
        <ele>1255</ele>
        <time>2024-05-04T12:22:12Z</time>
      </trkpt>
      <trkpt lat="44.78559" lon="4.36707">
        <ele>1256</ele>
        <time>2024-05-04T12:22:20Z</time>
      </trkpt>
      <trkpt lat="44.7857" lon="4.36678">
        <ele>1254</ele>
        <time>2024-05-04T12:22:25Z</time>
      </trkpt>
      <trkpt lat="44.78583" lon="4.3665">
        <ele>1254</ele>
        <time>2024-05-04T12:22:31Z</time>
      </trkpt>
      <trkpt lat="44.78594" lon="4.36635">
        <ele>1253</ele>
        <time>2024-05-04T12:22:34Z</time>
      </trkpt>
      <trkpt lat="44.78649" lon="4.36571">
        <ele>1245</ele>
        <time>2024-05-04T12:22:51Z</time>
      </trkpt>
      <trkpt lat="44.78694" lon="4.36504">
        <ele>1247</ele>
        <time>2024-05-04T12:23:06Z</time>
      </trkpt>
      <trkpt lat="44.78709" lon="4.36486">
        <ele>1249</ele>
        <time>2024-05-04T12:23:11Z</time>
      </trkpt>
      <trkpt lat="44.78717" lon="4.36486">
        <ele>1247</ele>
        <time>2024-05-04T12:23:13Z</time>
      </trkpt>
      <trkpt lat="44.7873" lon="4.36493">
        <ele>1243</ele>
        <time>2024-05-04T12:23:16Z</time>
      </trkpt>
      <trkpt lat="44.78755" lon="4.36516">
        <ele>1234</ele>
        <time>2024-05-04T12:23:23Z</time>
      </trkpt>
      <trkpt lat="44.78764" lon="4.3653">
        <ele>1231</ele>
        <time>2024-05-04T12:23:26Z</time>
      </trkpt>
      <trkpt lat="44.7877" lon="4.36548">
        <ele>1226</ele>
        <time>2024-05-04T12:23:30Z</time>
      </trkpt>
      <trkpt lat="44.78801" lon="4.36578">
        <ele>1220</ele>
        <time>2024-05-04T12:23:38Z</time>
      </trkpt>
      <trkpt lat="44.78837" lon="4.36606">
        <ele>1214</ele>
        <time>2024-05-04T12:23:48Z</time>
      </trkpt>
      <trkpt lat="44.78852" lon="4.36608">
        <ele>1211</ele>
        <time>2024-05-04T12:23:51Z</time>
      </trkpt>
      <trkpt lat="44.78871" lon="4.36601">
        <ele>1210</ele>
        <time>2024-05-04T12:23:56Z</time>
      </trkpt>
      <trkpt lat="44.78905" lon="4.36563">
        <ele>1211</ele>
        <time>2024-05-04T12:24:06Z</time>
      </trkpt>
      <trkpt lat="44.78942" lon="4.3651">
        <ele>1208</ele>
        <time>2024-05-04T12:24:19Z</time>
      </trkpt>
      <trkpt lat="44.78962" lon="4.36458">
        <ele>1207</ele>
        <time>2024-05-04T12:24:28Z</time>
      </trkpt>
      <trkpt lat="44.7897" lon="4.3641">
        <ele>1208</ele>
        <time>2024-05-04T12:24:36Z</time>
      </trkpt>
      <trkpt lat="44.78982" lon="4.36358">
        <ele>1207</ele>
        <time>2024-05-04T12:24:46Z</time>
      </trkpt>
      <trkpt lat="44.79022" lon="4.36259">
        <ele>1204</ele>
        <time>2024-05-04T12:25:04Z</time>
      </trkpt>
      <trkpt lat="44.79046" lon="4.36215">
        <ele>1206</ele>
        <time>2024-05-04T12:25:14Z</time>
      </trkpt>
      <trkpt lat="44.79064" lon="4.36174">
        <ele>1211</ele>
        <time>2024-05-04T12:25:22Z</time>
      </trkpt>
      <trkpt lat="44.79077" lon="4.36159">
        <ele>1211</ele>
        <time>2024-05-04T12:25:26Z</time>
      </trkpt>
      <trkpt lat="44.79089" lon="4.36153">
        <ele>1211</ele>
        <time>2024-05-04T12:25:29Z</time>
      </trkpt>
      <trkpt lat="44.79097" lon="4.36155">
        <ele>1211</ele>
        <time>2024-05-04T12:25:30Z</time>
      </trkpt>
      <trkpt lat="44.79104" lon="4.36166">
        <ele>1208</ele>
        <time>2024-05-04T12:25:33Z</time>
      </trkpt>
      <trkpt lat="44.79113" lon="4.36185">
        <ele>1204</ele>
        <time>2024-05-04T12:25:37Z</time>
      </trkpt>
      <trkpt lat="44.7913" lon="4.36211">
        <ele>1198</ele>
        <time>2024-05-04T12:25:42Z</time>
      </trkpt>
      <trkpt lat="44.79158" lon="4.3623">
        <ele>1192</ele>
        <time>2024-05-04T12:25:50Z</time>
      </trkpt>
      <trkpt lat="44.79186" lon="4.36236">
        <ele>1186</ele>
        <time>2024-05-04T12:25:56Z</time>
      </trkpt>
      <trkpt lat="44.79207" lon="4.36228">
        <ele>1183</ele>
        <time>2024-05-04T12:26:01Z</time>
      </trkpt>
      <trkpt lat="44.79235" lon="4.36204">
        <ele>1182</ele>
        <time>2024-05-04T12:26:09Z</time>
      </trkpt>
      <trkpt lat="44.79263" lon="4.36166">
        <ele>1184</ele>
        <time>2024-05-04T12:26:18Z</time>
      </trkpt>
      <trkpt lat="44.79359" lon="4.35961">
        <ele>1176</ele>
        <time>2024-05-04T12:26:59Z</time>
      </trkpt>
      <trkpt lat="44.7939" lon="4.35906">
        <ele>1175</ele>
        <time>2024-05-04T12:27:11Z</time>
      </trkpt>
      <trkpt lat="44.79408" lon="4.35888">
        <ele>1173</ele>
        <time>2024-05-04T12:27:16Z</time>
      </trkpt>
      <trkpt lat="44.79449" lon="4.35869">
        <ele>1169</ele>
        <time>2024-05-04T12:27:26Z</time>
      </trkpt>
      <trkpt lat="44.79478" lon="4.35862">
        <ele>1166</ele>
        <time>2024-05-04T12:27:33Z</time>
      </trkpt>
      <trkpt lat="44.79489" lon="4.35861">
        <ele>1164</ele>
        <time>2024-05-04T12:27:35Z</time>
      </trkpt>
      <trkpt lat="44.79516" lon="4.35843">
        <ele>1165</ele>
        <time>2024-05-04T12:27:42Z</time>
      </trkpt>
      <trkpt lat="44.79518" lon="4.35846">
        <ele>1165</ele>
        <time>2024-05-04T12:27:43Z</time>
      </trkpt>
      <trkpt lat="44.79525" lon="4.35845">
        <ele>1165</ele>
        <time>2024-05-04T12:27:45Z</time>
      </trkpt>
      <trkpt lat="44.79561" lon="4.3582">
        <ele>1166</ele>
        <time>2024-05-04T12:27:54Z</time>
      </trkpt>
      <trkpt lat="44.79573" lon="4.35817">
        <ele>1166</ele>
        <time>2024-05-04T12:27:57Z</time>
      </trkpt>
      <trkpt lat="44.79603" lon="4.35822">
        <ele>1168</ele>
        <time>2024-05-04T12:28:04Z</time>
      </trkpt>
      <trkpt lat="44.79655" lon="4.35824">
        <ele>1172</ele>
        <time>2024-05-04T12:28:16Z</time>
      </trkpt>
      <trkpt lat="44.79672" lon="4.35827">
        <ele>1173</ele>
        <time>2024-05-04T12:28:20Z</time>
      </trkpt>
      <trkpt lat="44.79757" lon="4.35862">
        <ele>1174</ele>
        <time>2024-05-04T12:28:41Z</time>
      </trkpt>
      <trkpt lat="44.79766" lon="4.35871">
        <ele>1175</ele>
        <time>2024-05-04T12:28:43Z</time>
      </trkpt>
      <trkpt lat="44.79773" lon="4.35882">
        <ele>1176</ele>
        <time>2024-05-04T12:28:46Z</time>
      </trkpt>
      <trkpt lat="44.79806" lon="4.35968">
        <ele>1179</ele>
        <time>2024-05-04T12:29:02Z</time>
      </trkpt>
      <trkpt lat="44.79817" lon="4.35987">
        <ele>1180</ele>
        <time>2024-05-04T12:29:06Z</time>
      </trkpt>
      <trkpt lat="44.79829" lon="4.35999">
        <ele>1181</ele>
        <time>2024-05-04T12:29:09Z</time>
      </trkpt>
      <trkpt lat="44.7985" lon="4.36007">
        <ele>1182</ele>
        <time>2024-05-04T12:29:14Z</time>
      </trkpt>
      <trkpt lat="44.79859" lon="4.36009">
        <ele>1181</ele>
        <time>2024-05-04T12:29:17Z</time>
      </trkpt>
      <trkpt lat="44.79898" lon="4.36008">
        <ele>1180</ele>
        <time>2024-05-04T12:29:26Z</time>
      </trkpt>
      <trkpt lat="44.79912" lon="4.36011">
        <ele>1179</ele>
        <time>2024-05-04T12:29:29Z</time>
      </trkpt>
      <trkpt lat="44.79929" lon="4.36009">
        <ele>1178</ele>
        <time>2024-05-04T12:29:33Z</time>
      </trkpt>
      <trkpt lat="44.79954" lon="4.36">
        <ele>1176</ele>
        <time>2024-05-04T12:29:39Z</time>
      </trkpt>
      <trkpt lat="44.80032" lon="4.35959">
        <ele>1175</ele>
        <time>2024-05-04T12:29:58Z</time>
      </trkpt>
      <trkpt lat="44.80045" lon="4.35942">
        <ele>1176</ele>
        <time>2024-05-04T12:30:03Z</time>
      </trkpt>
      <trkpt lat="44.80068" lon="4.35904">
        <ele>1176</ele>
        <time>2024-05-04T12:30:11Z</time>
      </trkpt>
      <trkpt lat="44.80102" lon="4.35865">
        <ele>1174</ele>
        <time>2024-05-04T12:30:21Z</time>
      </trkpt>
      <trkpt lat="44.80267" lon="4.35694">
        <ele>1171</ele>
        <time>2024-05-04T12:31:09Z</time>
      </trkpt>
      <trkpt lat="44.80328" lon="4.35624">
        <ele>1171</ele>
        <time>2024-05-04T12:31:27Z</time>
      </trkpt>
      <trkpt lat="44.80343" lon="4.35604">
        <ele>1170</ele>
        <time>2024-05-04T12:31:32Z</time>
      </trkpt>
      <trkpt lat="44.80376" lon="4.35542">
        <ele>1167</ele>
        <time>2024-05-04T12:31:45Z</time>
      </trkpt>
      <trkpt lat="44.8041" lon="4.35443">
        <ele>1163</ele>
        <time>2024-05-04T12:32:03Z</time>
      </trkpt>
      <trkpt lat="44.80415" lon="4.35433">
        <ele>1163</ele>
        <time>2024-05-04T12:32:05Z</time>
      </trkpt>
      <trkpt lat="44.80429" lon="4.35416">
        <ele>1162</ele>
        <time>2024-05-04T12:32:09Z</time>
      </trkpt>
      <trkpt lat="44.80461" lon="4.35386">
        <ele>1160</ele>
        <time>2024-05-04T12:32:18Z</time>
      </trkpt>
      <trkpt lat="44.80482" lon="4.3537">
        <ele>1159</ele>
        <time>2024-05-04T12:32:24Z</time>
      </trkpt>
      <trkpt lat="44.80548" lon="4.35328">
        <ele>1154</ele>
        <time>2024-05-04T12:32:41Z</time>
      </trkpt>
      <trkpt lat="44.80601" lon="4.35305">
        <ele>1152</ele>
        <time>2024-05-04T12:32:54Z</time>
      </trkpt>
      <trkpt lat="44.80638" lon="4.35291">
        <ele>1150</ele>
        <time>2024-05-04T12:33:03Z</time>
      </trkpt>
      <trkpt lat="44.80703" lon="4.35276">
        <ele>1146</ele>
        <time>2024-05-04T12:33:18Z</time>
      </trkpt>
      <trkpt lat="44.80727" lon="4.35285">
        <ele>1147</ele>
        <time>2024-05-04T12:33:24Z</time>
      </trkpt>
      <trkpt lat="44.80748" lon="4.3528">
        <ele>1146</ele>
        <time>2024-05-04T12:33:29Z</time>
      </trkpt>
      <trkpt lat="44.8076" lon="4.35273">
        <ele>1145</ele>
        <time>2024-05-04T12:33:32Z</time>
      </trkpt>
      <trkpt lat="44.80779" lon="4.3522">
        <ele>1140</ele>
        <time>2024-05-04T12:33:42Z</time>
      </trkpt>
      <trkpt lat="44.80786" lon="4.35194">
        <ele>1137</ele>
        <time>2024-05-04T12:33:46Z</time>
      </trkpt>
      <trkpt lat="44.80811" lon="4.35207">
        <ele>1139</ele>
        <time>2024-05-04T12:33:53Z</time>
      </trkpt>
    </trkseg>
  </trk>
</gpx>